<?xml version="1.0" encoding="UTF-8" standalone="no" ?>
<gpx xmlns="http://www.topografix.com/GPX/1/1" xmlns:xsi="http://www.w3.org/2001/XMLSchema-instance" xsi:schemaLocation="http://www.topografix.com/GPX/1/1 http://www.topografix.com/GPX/1/1/gpx.xsd" version="1.1" creator="VisuGPX - https://www.visugpx.com">
  <metadata>
    <name>Circuit permanent VTT Saverne S3</name>
    <desc><![CDATA[Circuit VTT permanent de Saverne S3  37 Km
Saverne , La Hoube , Saverne]]></desc>
  </metadata>
  <trk>
    <name><![CDATA[ADi2011/05/29_14:08-2]]></name>
    <trkseg>
      <trkpt lat="48.73222" lon="7.35107">
        <ele>251.4</ele>
        <time>2011-05-29T12:18:01Z</time>
      </trkpt>
      <trkpt lat="48.73248" lon="7.35043">
        <ele>257.4</ele>
        <time>2011-05-29T12:18:12Z</time>
      </trkpt>
      <trkpt lat="48.73261" lon="7.35005">
        <ele>260.7</ele>
        <time>2011-05-29T12:18:25Z</time>
      </trkpt>
      <trkpt lat="48.73272" lon="7.34968">
        <ele>265.2</ele>
        <time>2011-05-29T12:18:40Z</time>
      </trkpt>
      <trkpt lat="48.73285" lon="7.34932">
        <ele>269.9</ele>
        <time>2011-05-29T12:19:02Z</time>
      </trkpt>
      <trkpt lat="48.73307" lon="7.34906">
        <ele>273.6</ele>
        <time>2011-05-29T12:19:18Z</time>
      </trkpt>
      <trkpt lat="48.73325" lon="7.3487">
        <ele>277.5</ele>
        <time>2011-05-29T12:19:36Z</time>
      </trkpt>
      <trkpt lat="48.73339" lon="7.34835">
        <ele>280.1</ele>
        <time>2011-05-29T12:19:54Z</time>
      </trkpt>
      <trkpt lat="48.7336" lon="7.3481">
        <ele>276.8</ele>
        <time>2011-05-29T12:20:12Z</time>
      </trkpt>
      <trkpt lat="48.7335" lon="7.34769">
        <ele>277.1</ele>
        <time>2011-05-29T12:20:29Z</time>
      </trkpt>
      <trkpt lat="48.73329" lon="7.34741">
        <ele>279.4</ele>
        <time>2011-05-29T12:20:40Z</time>
      </trkpt>
      <trkpt lat="48.7331" lon="7.3471">
        <ele>282.1</ele>
        <time>2011-05-29T12:20:52Z</time>
      </trkpt>
      <trkpt lat="48.73292" lon="7.34678">
        <ele>285.5</ele>
        <time>2011-05-29T12:21:02Z</time>
      </trkpt>
      <trkpt lat="48.73272" lon="7.34646">
        <ele>288.7</ele>
        <time>2011-05-29T12:21:10Z</time>
      </trkpt>
      <trkpt lat="48.73252" lon="7.34616">
        <ele>291</ele>
        <time>2011-05-29T12:21:18Z</time>
      </trkpt>
      <trkpt lat="48.73243" lon="7.34577">
        <ele>290.3</ele>
        <time>2011-05-29T12:21:27Z</time>
      </trkpt>
      <trkpt lat="48.73232" lon="7.34538">
        <ele>290.4</ele>
        <time>2011-05-29T12:21:34Z</time>
      </trkpt>
      <trkpt lat="48.73216" lon="7.345">
        <ele>291.7</ele>
        <time>2011-05-29T12:21:42Z</time>
      </trkpt>
      <trkpt lat="48.732" lon="7.34467">
        <ele>293.1</ele>
        <time>2011-05-29T12:21:49Z</time>
      </trkpt>
      <trkpt lat="48.73182" lon="7.34435">
        <ele>296</ele>
        <time>2011-05-29T12:21:57Z</time>
      </trkpt>
      <trkpt lat="48.73166" lon="7.34396">
        <ele>297</ele>
        <time>2011-05-29T12:22:05Z</time>
      </trkpt>
      <trkpt lat="48.73156" lon="7.34355">
        <ele>294.2</ele>
        <time>2011-05-29T12:22:11Z</time>
      </trkpt>
      <trkpt lat="48.73128" lon="7.34325">
        <ele>294</ele>
        <time>2011-05-29T12:22:16Z</time>
      </trkpt>
      <trkpt lat="48.73108" lon="7.34293">
        <ele>291.3</ele>
        <time>2011-05-29T12:22:22Z</time>
      </trkpt>
      <trkpt lat="48.73083" lon="7.34269">
        <ele>292.1</ele>
        <time>2011-05-29T12:22:27Z</time>
      </trkpt>
      <trkpt lat="48.73058" lon="7.34243">
        <ele>292.5</ele>
        <time>2011-05-29T12:22:33Z</time>
      </trkpt>
      <trkpt lat="48.73033" lon="7.34218">
        <ele>293.6</ele>
        <time>2011-05-29T12:22:40Z</time>
      </trkpt>
      <trkpt lat="48.73006" lon="7.34192">
        <ele>295.8</ele>
        <time>2011-05-29T12:22:47Z</time>
      </trkpt>
      <trkpt lat="48.72982" lon="7.34169">
        <ele>299.5</ele>
        <time>2011-05-29T12:22:54Z</time>
      </trkpt>
      <trkpt lat="48.72962" lon="7.34137">
        <ele>300.2</ele>
        <time>2011-05-29T12:23:02Z</time>
      </trkpt>
      <trkpt lat="48.72943" lon="7.34108">
        <ele>301</ele>
        <time>2011-05-29T12:23:10Z</time>
      </trkpt>
      <trkpt lat="48.72926" lon="7.34075">
        <ele>300.9</ele>
        <time>2011-05-29T12:23:18Z</time>
      </trkpt>
      <trkpt lat="48.72911" lon="7.34037">
        <ele>303.5</ele>
        <time>2011-05-29T12:23:28Z</time>
      </trkpt>
      <trkpt lat="48.72897" lon="7.34002">
        <ele>307.3</ele>
        <time>2011-05-29T12:23:35Z</time>
      </trkpt>
      <trkpt lat="48.72885" lon="7.3396">
        <ele>308.2</ele>
        <time>2011-05-29T12:23:43Z</time>
      </trkpt>
      <trkpt lat="48.72875" lon="7.33917">
        <ele>307.9</ele>
        <time>2011-05-29T12:23:51Z</time>
      </trkpt>
      <trkpt lat="48.72863" lon="7.33876">
        <ele>308.1</ele>
        <time>2011-05-29T12:23:59Z</time>
      </trkpt>
      <trkpt lat="48.72851" lon="7.33837">
        <ele>308</ele>
        <time>2011-05-29T12:24:08Z</time>
      </trkpt>
      <trkpt lat="48.72834" lon="7.33801">
        <ele>310.7</ele>
        <time>2011-05-29T12:24:16Z</time>
      </trkpt>
      <trkpt lat="48.72819" lon="7.33764">
        <ele>312</ele>
        <time>2011-05-29T12:24:25Z</time>
      </trkpt>
      <trkpt lat="48.72799" lon="7.33732">
        <ele>315.7</ele>
        <time>2011-05-29T12:24:32Z</time>
      </trkpt>
      <trkpt lat="48.72779" lon="7.33702">
        <ele>318.5</ele>
        <time>2011-05-29T12:24:40Z</time>
      </trkpt>
      <trkpt lat="48.72758" lon="7.3367">
        <ele>319.6</ele>
        <time>2011-05-29T12:24:48Z</time>
      </trkpt>
      <trkpt lat="48.72736" lon="7.33638">
        <ele>320.9</ele>
        <time>2011-05-29T12:24:55Z</time>
      </trkpt>
      <trkpt lat="48.72714" lon="7.33608">
        <ele>320.8</ele>
        <time>2011-05-29T12:25:02Z</time>
      </trkpt>
      <trkpt lat="48.72689" lon="7.3358">
        <ele>320.5</ele>
        <time>2011-05-29T12:25:09Z</time>
      </trkpt>
      <trkpt lat="48.72667" lon="7.33552">
        <ele>319.7</ele>
        <time>2011-05-29T12:25:16Z</time>
      </trkpt>
      <trkpt lat="48.72644" lon="7.33525">
        <ele>320.9</ele>
        <time>2011-05-29T12:25:23Z</time>
      </trkpt>
      <trkpt lat="48.7262" lon="7.33495">
        <ele>320.8</ele>
        <time>2011-05-29T12:25:30Z</time>
      </trkpt>
      <trkpt lat="48.72595" lon="7.33467">
        <ele>321.7</ele>
        <time>2011-05-29T12:25:36Z</time>
      </trkpt>
      <trkpt lat="48.7257" lon="7.33442">
        <ele>323.7</ele>
        <time>2011-05-29T12:25:42Z</time>
      </trkpt>
      <trkpt lat="48.72545" lon="7.33417">
        <ele>324.8</ele>
        <time>2011-05-29T12:25:49Z</time>
      </trkpt>
      <trkpt lat="48.72516" lon="7.33394">
        <ele>324.8</ele>
        <time>2011-05-29T12:25:56Z</time>
      </trkpt>
      <trkpt lat="48.72487" lon="7.33381">
        <ele>327.7</ele>
        <time>2011-05-29T12:26:02Z</time>
      </trkpt>
      <trkpt lat="48.7246" lon="7.33356">
        <ele>327.7</ele>
        <time>2011-05-29T12:26:09Z</time>
      </trkpt>
      <trkpt lat="48.72432" lon="7.33335">
        <ele>330</ele>
        <time>2011-05-29T12:26:17Z</time>
      </trkpt>
      <trkpt lat="48.72411" lon="7.33308">
        <ele>326.9</ele>
        <time>2011-05-29T12:26:26Z</time>
      </trkpt>
      <trkpt lat="48.7239" lon="7.3328">
        <ele>323.3</ele>
        <time>2011-05-29T12:26:36Z</time>
      </trkpt>
      <trkpt lat="48.72366" lon="7.33256">
        <ele>322.5</ele>
        <time>2011-05-29T12:26:49Z</time>
      </trkpt>
      <trkpt lat="48.7234" lon="7.33243">
        <ele>327.1</ele>
        <time>2011-05-29T12:27:02Z</time>
      </trkpt>
      <trkpt lat="48.72313" lon="7.33234">
        <ele>331.2</ele>
        <time>2011-05-29T12:27:13Z</time>
      </trkpt>
      <trkpt lat="48.72287" lon="7.3323">
        <ele>335.5</ele>
        <time>2011-05-29T12:27:30Z</time>
      </trkpt>
      <trkpt lat="48.7226" lon="7.33226">
        <ele>340.1</ele>
        <time>2011-05-29T12:27:44Z</time>
      </trkpt>
      <trkpt lat="48.72233" lon="7.33226">
        <ele>344.3</ele>
        <time>2011-05-29T12:27:59Z</time>
      </trkpt>
      <trkpt lat="48.72205" lon="7.33227">
        <ele>347.8</ele>
        <time>2011-05-29T12:28:13Z</time>
      </trkpt>
      <trkpt lat="48.72181" lon="7.3321">
        <ele>347.4</ele>
        <time>2011-05-29T12:28:31Z</time>
      </trkpt>
      <trkpt lat="48.72155" lon="7.33191">
        <ele>351.3</ele>
        <time>2011-05-29T12:28:46Z</time>
      </trkpt>
      <trkpt lat="48.72139" lon="7.33158">
        <ele>354.8</ele>
        <time>2011-05-29T12:28:59Z</time>
      </trkpt>
      <trkpt lat="48.72134" lon="7.33117">
        <ele>355.4</ele>
        <time>2011-05-29T12:29:10Z</time>
      </trkpt>
      <trkpt lat="48.72133" lon="7.33075">
        <ele>353.6</ele>
        <time>2011-05-29T12:29:20Z</time>
      </trkpt>
      <trkpt lat="48.72136" lon="7.33033">
        <ele>351.5</ele>
        <time>2011-05-29T12:29:28Z</time>
      </trkpt>
      <trkpt lat="48.72138" lon="7.3299">
        <ele>349</ele>
        <time>2011-05-29T12:29:36Z</time>
      </trkpt>
      <trkpt lat="48.72139" lon="7.32949">
        <ele>345.7</ele>
        <time>2011-05-29T12:29:43Z</time>
      </trkpt>
      <trkpt lat="48.72142" lon="7.32905">
        <ele>342.6</ele>
        <time>2011-05-29T12:29:50Z</time>
      </trkpt>
      <trkpt lat="48.72139" lon="7.32859">
        <ele>346.2</ele>
        <time>2011-05-29T12:29:57Z</time>
      </trkpt>
      <trkpt lat="48.72131" lon="7.32819">
        <ele>350.1</ele>
        <time>2011-05-29T12:30:04Z</time>
      </trkpt>
      <trkpt lat="48.72116" lon="7.32781">
        <ele>353</ele>
        <time>2011-05-29T12:30:11Z</time>
      </trkpt>
      <trkpt lat="48.72093" lon="7.32754">
        <ele>357.5</ele>
        <time>2011-05-29T12:30:18Z</time>
      </trkpt>
      <trkpt lat="48.72067" lon="7.32738">
        <ele>359.5</ele>
        <time>2011-05-29T12:30:25Z</time>
      </trkpt>
      <trkpt lat="48.72039" lon="7.3273">
        <ele>360.6</ele>
        <time>2011-05-29T12:30:32Z</time>
      </trkpt>
      <trkpt lat="48.7201" lon="7.32723">
        <ele>361.9</ele>
        <time>2011-05-29T12:30:40Z</time>
      </trkpt>
      <trkpt lat="48.71982" lon="7.32721">
        <ele>362</ele>
        <time>2011-05-29T12:30:48Z</time>
      </trkpt>
      <trkpt lat="48.71954" lon="7.32726">
        <ele>362.7</ele>
        <time>2011-05-29T12:30:56Z</time>
      </trkpt>
      <trkpt lat="48.71926" lon="7.32739">
        <ele>365.5</ele>
        <time>2011-05-29T12:31:04Z</time>
      </trkpt>
      <trkpt lat="48.71897" lon="7.32755">
        <ele>366.8</ele>
        <time>2011-05-29T12:31:12Z</time>
      </trkpt>
      <trkpt lat="48.7187" lon="7.32779">
        <ele>369.4</ele>
        <time>2011-05-29T12:31:19Z</time>
      </trkpt>
      <trkpt lat="48.71845" lon="7.32799">
        <ele>371.7</ele>
        <time>2011-05-29T12:31:26Z</time>
      </trkpt>
      <trkpt lat="48.71817" lon="7.32813">
        <ele>373.3</ele>
        <time>2011-05-29T12:31:33Z</time>
      </trkpt>
      <trkpt lat="48.7179" lon="7.32817">
        <ele>373.8</ele>
        <time>2011-05-29T12:31:41Z</time>
      </trkpt>
      <trkpt lat="48.71763" lon="7.32816">
        <ele>372.8</ele>
        <time>2011-05-29T12:31:47Z</time>
      </trkpt>
      <trkpt lat="48.71734" lon="7.32812">
        <ele>370.2</ele>
        <time>2011-05-29T12:31:54Z</time>
      </trkpt>
      <trkpt lat="48.71704" lon="7.32811">
        <ele>367</ele>
        <time>2011-05-29T12:32:01Z</time>
      </trkpt>
      <trkpt lat="48.71677" lon="7.3283">
        <ele>367.6</ele>
        <time>2011-05-29T12:32:09Z</time>
      </trkpt>
      <trkpt lat="48.71658" lon="7.32863">
        <ele>371.3</ele>
        <time>2011-05-29T12:32:16Z</time>
      </trkpt>
      <trkpt lat="48.71632" lon="7.32887">
        <ele>373.8</ele>
        <time>2011-05-29T12:32:24Z</time>
      </trkpt>
      <trkpt lat="48.71602" lon="7.32892">
        <ele>372.4</ele>
        <time>2011-05-29T12:32:30Z</time>
      </trkpt>
      <trkpt lat="48.71571" lon="7.32888">
        <ele>369.8</ele>
        <time>2011-05-29T12:32:37Z</time>
      </trkpt>
      <trkpt lat="48.71542" lon="7.32882">
        <ele>369.3</ele>
        <time>2011-05-29T12:32:45Z</time>
      </trkpt>
      <trkpt lat="48.71512" lon="7.32881">
        <ele>370.5</ele>
        <time>2011-05-29T12:32:52Z</time>
      </trkpt>
      <trkpt lat="48.71483" lon="7.32878">
        <ele>370</ele>
        <time>2011-05-29T12:33:00Z</time>
      </trkpt>
      <trkpt lat="48.71455" lon="7.32886">
        <ele>373.1</ele>
        <time>2011-05-29T12:33:08Z</time>
      </trkpt>
      <trkpt lat="48.71425" lon="7.32887">
        <ele>374</ele>
        <time>2011-05-29T12:33:15Z</time>
      </trkpt>
      <trkpt lat="48.71396" lon="7.32892">
        <ele>375.3</ele>
        <time>2011-05-29T12:33:23Z</time>
      </trkpt>
      <trkpt lat="48.71367" lon="7.32899">
        <ele>377.4</ele>
        <time>2011-05-29T12:33:29Z</time>
      </trkpt>
      <trkpt lat="48.7134" lon="7.32905">
        <ele>379.5</ele>
        <time>2011-05-29T12:33:35Z</time>
      </trkpt>
      <trkpt lat="48.7131" lon="7.32901">
        <ele>381.7</ele>
        <time>2011-05-29T12:33:40Z</time>
      </trkpt>
      <trkpt lat="48.71282" lon="7.329">
        <ele>385.8</ele>
        <time>2011-05-29T12:33:47Z</time>
      </trkpt>
      <trkpt lat="48.71254" lon="7.32879">
        <ele>383.3</ele>
        <time>2011-05-29T12:33:58Z</time>
      </trkpt>
      <trkpt lat="48.7123" lon="7.32851">
        <ele>380.5</ele>
        <time>2011-05-29T12:34:04Z</time>
      </trkpt>
      <trkpt lat="48.71209" lon="7.32826">
        <ele>380.7</ele>
        <time>2011-05-29T12:34:09Z</time>
      </trkpt>
      <trkpt lat="48.71183" lon="7.32807">
        <ele>384.6</ele>
        <time>2011-05-29T12:34:14Z</time>
      </trkpt>
      <trkpt lat="48.71162" lon="7.3278">
        <ele>383.9</ele>
        <time>2011-05-29T12:34:23Z</time>
      </trkpt>
      <trkpt lat="48.71137" lon="7.32758">
        <ele>385.1</ele>
        <time>2011-05-29T12:34:33Z</time>
      </trkpt>
      <trkpt lat="48.71118" lon="7.3272">
        <ele>385.6</ele>
        <time>2011-05-29T12:34:37Z</time>
      </trkpt>
      <trkpt lat="48.71113" lon="7.32679">
        <ele>383.3</ele>
        <time>2011-05-29T12:34:42Z</time>
      </trkpt>
      <trkpt lat="48.71129" lon="7.3264">
        <ele>381.7</ele>
        <time>2011-05-29T12:34:48Z</time>
      </trkpt>
      <trkpt lat="48.71153" lon="7.32612">
        <ele>378.8</ele>
        <time>2011-05-29T12:34:53Z</time>
      </trkpt>
      <trkpt lat="48.71167" lon="7.32573">
        <ele>381.9</ele>
        <time>2011-05-29T12:34:57Z</time>
      </trkpt>
      <trkpt lat="48.71182" lon="7.32538">
        <ele>384</ele>
        <time>2011-05-29T12:35:01Z</time>
      </trkpt>
      <trkpt lat="48.71209" lon="7.32512">
        <ele>381.9</ele>
        <time>2011-05-29T12:35:06Z</time>
      </trkpt>
      <trkpt lat="48.71232" lon="7.32487">
        <ele>380.5</ele>
        <time>2011-05-29T12:35:11Z</time>
      </trkpt>
      <trkpt lat="48.71206" lon="7.32503">
        <ele>385</ele>
        <time>2011-05-29T12:35:27Z</time>
      </trkpt>
      <trkpt lat="48.71183" lon="7.32522">
        <ele>387.5</ele>
        <time>2011-05-29T12:35:37Z</time>
      </trkpt>
      <trkpt lat="48.71164" lon="7.32552">
        <ele>387.2</ele>
        <time>2011-05-29T12:36:11Z</time>
      </trkpt>
      <trkpt lat="48.71143" lon="7.32606">
        <ele>383.6</ele>
        <time>2011-05-29T12:36:25Z</time>
      </trkpt>
      <trkpt lat="48.71128" lon="7.32645">
        <ele>381.1</ele>
        <time>2011-05-29T12:36:32Z</time>
      </trkpt>
      <trkpt lat="48.71123" lon="7.32686">
        <ele>380.6</ele>
        <time>2011-05-29T12:36:37Z</time>
      </trkpt>
      <trkpt lat="48.71089" lon="7.32725">
        <ele>395.2</ele>
        <time>2011-05-29T12:36:40Z</time>
      </trkpt>
      <trkpt lat="48.71096" lon="7.32765">
        <ele>399.5</ele>
        <time>2011-05-29T12:36:52Z</time>
      </trkpt>
      <trkpt lat="48.71113" lon="7.32798">
        <ele>403.8</ele>
        <time>2011-05-29T12:37:07Z</time>
      </trkpt>
      <trkpt lat="48.71133" lon="7.32828">
        <ele>406.8</ele>
        <time>2011-05-29T12:37:26Z</time>
      </trkpt>
      <trkpt lat="48.71153" lon="7.32852">
        <ele>404.8</ele>
        <time>2011-05-29T12:37:34Z</time>
      </trkpt>
      <trkpt lat="48.71172" lon="7.32881">
        <ele>403.6</ele>
        <time>2011-05-29T12:37:47Z</time>
      </trkpt>
      <trkpt lat="48.71184" lon="7.32918">
        <ele>407.5</ele>
        <time>2011-05-29T12:37:58Z</time>
      </trkpt>
      <trkpt lat="48.71192" lon="7.32958">
        <ele>413.2</ele>
        <time>2011-05-29T12:38:11Z</time>
      </trkpt>
      <trkpt lat="48.71217" lon="7.32988">
        <ele>415.2</ele>
        <time>2011-05-29T12:38:26Z</time>
      </trkpt>
      <trkpt lat="48.7124" lon="7.33011">
        <ele>416.4</ele>
        <time>2011-05-29T12:38:43Z</time>
      </trkpt>
      <trkpt lat="48.71267" lon="7.33023">
        <ele>416.5</ele>
        <time>2011-05-29T12:38:56Z</time>
      </trkpt>
      <trkpt lat="48.71294" lon="7.33033">
        <ele>417.3</ele>
        <time>2011-05-29T12:39:04Z</time>
      </trkpt>
      <trkpt lat="48.71322" lon="7.33037">
        <ele>416.9</ele>
        <time>2011-05-29T12:39:14Z</time>
      </trkpt>
      <trkpt lat="48.7135" lon="7.33041">
        <ele>418.2</ele>
        <time>2011-05-29T12:39:23Z</time>
      </trkpt>
      <trkpt lat="48.7138" lon="7.33037">
        <ele>418.8</ele>
        <time>2011-05-29T12:39:32Z</time>
      </trkpt>
      <trkpt lat="48.71409" lon="7.3304">
        <ele>421.1</ele>
        <time>2011-05-29T12:39:41Z</time>
      </trkpt>
      <trkpt lat="48.71435" lon="7.33049">
        <ele>423.8</ele>
        <time>2011-05-29T12:39:51Z</time>
      </trkpt>
      <trkpt lat="48.71462" lon="7.33049">
        <ele>423.7</ele>
        <time>2011-05-29T12:40:02Z</time>
      </trkpt>
      <trkpt lat="48.71489" lon="7.33051">
        <ele>424.2</ele>
        <time>2011-05-29T12:40:13Z</time>
      </trkpt>
      <trkpt lat="48.71518" lon="7.33057">
        <ele>425</ele>
        <time>2011-05-29T12:40:25Z</time>
      </trkpt>
      <trkpt lat="48.71544" lon="7.33068">
        <ele>426.7</ele>
        <time>2011-05-29T12:40:37Z</time>
      </trkpt>
      <trkpt lat="48.71516" lon="7.3306">
        <ele>426.1</ele>
        <time>2011-05-29T12:40:45Z</time>
      </trkpt>
      <trkpt lat="48.71486" lon="7.33055">
        <ele>425.6</ele>
        <time>2011-05-29T12:40:53Z</time>
      </trkpt>
      <trkpt lat="48.71457" lon="7.33062">
        <ele>427.5</ele>
        <time>2011-05-29T12:40:59Z</time>
      </trkpt>
      <trkpt lat="48.71429" lon="7.3307">
        <ele>429.7</ele>
        <time>2011-05-29T12:41:05Z</time>
      </trkpt>
      <trkpt lat="48.71397" lon="7.33077">
        <ele>430</ele>
        <time>2011-05-29T12:41:12Z</time>
      </trkpt>
      <trkpt lat="48.71367" lon="7.33087">
        <ele>430</ele>
        <time>2011-05-29T12:41:19Z</time>
      </trkpt>
      <trkpt lat="48.71338" lon="7.33098">
        <ele>429.6</ele>
        <time>2011-05-29T12:41:24Z</time>
      </trkpt>
      <trkpt lat="48.71309" lon="7.33104">
        <ele>430.4</ele>
        <time>2011-05-29T12:41:28Z</time>
      </trkpt>
      <trkpt lat="48.71278" lon="7.33104">
        <ele>430.6</ele>
        <time>2011-05-29T12:41:33Z</time>
      </trkpt>
      <trkpt lat="48.71247" lon="7.33111">
        <ele>431.4</ele>
        <time>2011-05-29T12:41:39Z</time>
      </trkpt>
      <trkpt lat="48.71219" lon="7.33129">
        <ele>432.5</ele>
        <time>2011-05-29T12:41:45Z</time>
      </trkpt>
      <trkpt lat="48.7119" lon="7.33148">
        <ele>432.7</ele>
        <time>2011-05-29T12:41:51Z</time>
      </trkpt>
      <trkpt lat="48.71161" lon="7.33157">
        <ele>432.3</ele>
        <time>2011-05-29T12:41:58Z</time>
      </trkpt>
      <trkpt lat="48.71139" lon="7.33127">
        <ele>433.9</ele>
        <time>2011-05-29T12:42:09Z</time>
      </trkpt>
      <trkpt lat="48.71122" lon="7.33093">
        <ele>436.5</ele>
        <time>2011-05-29T12:42:25Z</time>
      </trkpt>
      <trkpt lat="48.71105" lon="7.33059">
        <ele>437</ele>
        <time>2011-05-29T12:42:37Z</time>
      </trkpt>
      <trkpt lat="48.7109" lon="7.33024">
        <ele>436.5</ele>
        <time>2011-05-29T12:42:52Z</time>
      </trkpt>
      <trkpt lat="48.71075" lon="7.32988">
        <ele>438.1</ele>
        <time>2011-05-29T12:43:06Z</time>
      </trkpt>
      <trkpt lat="48.71054" lon="7.32959">
        <ele>442.9</ele>
        <time>2011-05-29T12:43:23Z</time>
      </trkpt>
      <trkpt lat="48.71036" lon="7.32929">
        <ele>445.9</ele>
        <time>2011-05-29T12:43:42Z</time>
      </trkpt>
      <trkpt lat="48.71013" lon="7.32903">
        <ele>448.4</ele>
        <time>2011-05-29T12:43:56Z</time>
      </trkpt>
      <trkpt lat="48.70993" lon="7.32875">
        <ele>449.2</ele>
        <time>2011-05-29T12:44:09Z</time>
      </trkpt>
      <trkpt lat="48.70973" lon="7.32844">
        <ele>449.1</ele>
        <time>2011-05-29T12:44:21Z</time>
      </trkpt>
      <trkpt lat="48.70947" lon="7.32825">
        <ele>451.7</ele>
        <time>2011-05-29T12:44:31Z</time>
      </trkpt>
      <trkpt lat="48.70927" lon="7.32793">
        <ele>454.2</ele>
        <time>2011-05-29T12:44:39Z</time>
      </trkpt>
      <trkpt lat="48.70922" lon="7.32749">
        <ele>454.3</ele>
        <time>2011-05-29T12:44:46Z</time>
      </trkpt>
      <trkpt lat="48.70928" lon="7.32704">
        <ele>457.3</ele>
        <time>2011-05-29T12:44:53Z</time>
      </trkpt>
      <trkpt lat="48.70938" lon="7.32666">
        <ele>456.6</ele>
        <time>2011-05-29T12:45:00Z</time>
      </trkpt>
      <trkpt lat="48.70952" lon="7.32626">
        <ele>457.5</ele>
        <time>2011-05-29T12:45:09Z</time>
      </trkpt>
      <trkpt lat="48.7097" lon="7.32589">
        <ele>456.6</ele>
        <time>2011-05-29T12:45:18Z</time>
      </trkpt>
      <trkpt lat="48.70986" lon="7.32554">
        <ele>458.5</ele>
        <time>2011-05-29T12:45:25Z</time>
      </trkpt>
      <trkpt lat="48.71003" lon="7.32519">
        <ele>460.9</ele>
        <time>2011-05-29T12:45:32Z</time>
      </trkpt>
      <trkpt lat="48.71024" lon="7.32492">
        <ele>458.9</ele>
        <time>2011-05-29T12:45:38Z</time>
      </trkpt>
      <trkpt lat="48.71043" lon="7.32459">
        <ele>459.1</ele>
        <time>2011-05-29T12:45:46Z</time>
      </trkpt>
      <trkpt lat="48.71063" lon="7.32429">
        <ele>458.9</ele>
        <time>2011-05-29T12:45:55Z</time>
      </trkpt>
      <trkpt lat="48.71082" lon="7.32395">
        <ele>459.7</ele>
        <time>2011-05-29T12:46:04Z</time>
      </trkpt>
      <trkpt lat="48.71101" lon="7.32365">
        <ele>459.2</ele>
        <time>2011-05-29T12:46:12Z</time>
      </trkpt>
      <trkpt lat="48.71119" lon="7.32334">
        <ele>459</ele>
        <time>2011-05-29T12:46:28Z</time>
      </trkpt>
      <trkpt lat="48.71134" lon="7.32297">
        <ele>456.2</ele>
        <time>2011-05-29T12:46:40Z</time>
      </trkpt>
      <trkpt lat="48.71138" lon="7.32255">
        <ele>458.7</ele>
        <time>2011-05-29T12:46:54Z</time>
      </trkpt>
      <trkpt lat="48.71146" lon="7.32212">
        <ele>458.9</ele>
        <time>2011-05-29T12:47:07Z</time>
      </trkpt>
      <trkpt lat="48.71154" lon="7.32169">
        <ele>460.7</ele>
        <time>2011-05-29T12:47:20Z</time>
      </trkpt>
      <trkpt lat="48.71141" lon="7.32131">
        <ele>461.7</ele>
        <time>2011-05-29T12:47:33Z</time>
      </trkpt>
      <trkpt lat="48.71114" lon="7.32128">
        <ele>467.8</ele>
        <time>2011-05-29T12:47:47Z</time>
      </trkpt>
      <trkpt lat="48.7109" lon="7.32112">
        <ele>470.9</ele>
        <time>2011-05-29T12:48:09Z</time>
      </trkpt>
      <trkpt lat="48.71067" lon="7.32089">
        <ele>473</ele>
        <time>2011-05-29T12:48:26Z</time>
      </trkpt>
      <trkpt lat="48.71042" lon="7.32068">
        <ele>475.8</ele>
        <time>2011-05-29T12:48:36Z</time>
      </trkpt>
      <trkpt lat="48.71022" lon="7.32037">
        <ele>475.7</ele>
        <time>2011-05-29T12:48:46Z</time>
      </trkpt>
      <trkpt lat="48.71002" lon="7.32008">
        <ele>477</ele>
        <time>2011-05-29T12:48:54Z</time>
      </trkpt>
      <trkpt lat="48.70982" lon="7.31978">
        <ele>477.4</ele>
        <time>2011-05-29T12:49:03Z</time>
      </trkpt>
      <trkpt lat="48.70964" lon="7.31944">
        <ele>478.1</ele>
        <time>2011-05-29T12:49:13Z</time>
      </trkpt>
      <trkpt lat="48.7095" lon="7.31908">
        <ele>478.8</ele>
        <time>2011-05-29T12:49:22Z</time>
      </trkpt>
      <trkpt lat="48.70934" lon="7.31871">
        <ele>480.7</ele>
        <time>2011-05-29T12:49:30Z</time>
      </trkpt>
      <trkpt lat="48.70923" lon="7.31829">
        <ele>481.9</ele>
        <time>2011-05-29T12:49:41Z</time>
      </trkpt>
      <trkpt lat="48.70902" lon="7.31799">
        <ele>482</ele>
        <time>2011-05-29T12:49:50Z</time>
      </trkpt>
      <trkpt lat="48.70874" lon="7.318">
        <ele>484.8</ele>
        <time>2011-05-29T12:50:06Z</time>
      </trkpt>
      <trkpt lat="48.70847" lon="7.31809">
        <ele>488.7</ele>
        <time>2011-05-29T12:50:25Z</time>
      </trkpt>
      <trkpt lat="48.70819" lon="7.31818">
        <ele>488.8</ele>
        <time>2011-05-29T12:50:39Z</time>
      </trkpt>
      <trkpt lat="48.70792" lon="7.31833">
        <ele>486.4</ele>
        <time>2011-05-29T12:50:50Z</time>
      </trkpt>
      <trkpt lat="48.70766" lon="7.31852">
        <ele>484.9</ele>
        <time>2011-05-29T12:50:59Z</time>
      </trkpt>
      <trkpt lat="48.70746" lon="7.31879">
        <ele>484.2</ele>
        <time>2011-05-29T12:51:10Z</time>
      </trkpt>
      <trkpt lat="48.70727" lon="7.3191">
        <ele>481.1</ele>
        <time>2011-05-29T12:51:17Z</time>
      </trkpt>
      <trkpt lat="48.70703" lon="7.3193">
        <ele>474.7</ele>
        <time>2011-05-29T12:51:24Z</time>
      </trkpt>
      <trkpt lat="48.70681" lon="7.31967">
        <ele>471.9</ele>
        <time>2011-05-29T12:51:30Z</time>
      </trkpt>
      <trkpt lat="48.70662" lon="7.32007">
        <ele>471.9</ele>
        <time>2011-05-29T12:51:35Z</time>
      </trkpt>
      <trkpt lat="48.70642" lon="7.32036">
        <ele>470.3</ele>
        <time>2011-05-29T12:51:42Z</time>
      </trkpt>
      <trkpt lat="48.70618" lon="7.32056">
        <ele>466.2</ele>
        <time>2011-05-29T12:51:49Z</time>
      </trkpt>
      <trkpt lat="48.70592" lon="7.32067">
        <ele>459.1</ele>
        <time>2011-05-29T12:51:54Z</time>
      </trkpt>
      <trkpt lat="48.70566" lon="7.32074">
        <ele>452.8</ele>
        <time>2011-05-29T12:52:00Z</time>
      </trkpt>
      <trkpt lat="48.70538" lon="7.32074">
        <ele>445.2</ele>
        <time>2011-05-29T12:52:05Z</time>
      </trkpt>
      <trkpt lat="48.7051" lon="7.32086">
        <ele>441.5</ele>
        <time>2011-05-29T12:52:11Z</time>
      </trkpt>
      <trkpt lat="48.70483" lon="7.32106">
        <ele>439.6</ele>
        <time>2011-05-29T12:52:17Z</time>
      </trkpt>
      <trkpt lat="48.70458" lon="7.32124">
        <ele>436.7</ele>
        <time>2011-05-29T12:52:23Z</time>
      </trkpt>
      <trkpt lat="48.70431" lon="7.32147">
        <ele>434.2</ele>
        <time>2011-05-29T12:52:28Z</time>
      </trkpt>
      <trkpt lat="48.70404" lon="7.32165">
        <ele>430.3</ele>
        <time>2011-05-29T12:52:33Z</time>
      </trkpt>
      <trkpt lat="48.70379" lon="7.32185">
        <ele>428.3</ele>
        <time>2011-05-29T12:52:39Z</time>
      </trkpt>
      <trkpt lat="48.7035" lon="7.32204">
        <ele>423.7</ele>
        <time>2011-05-29T12:52:45Z</time>
      </trkpt>
      <trkpt lat="48.70322" lon="7.32207">
        <ele>416.8</ele>
        <time>2011-05-29T12:52:50Z</time>
      </trkpt>
      <trkpt lat="48.70293" lon="7.32214">
        <ele>412.6</ele>
        <time>2011-05-29T12:52:57Z</time>
      </trkpt>
      <trkpt lat="48.70264" lon="7.32225">
        <ele>409.4</ele>
        <time>2011-05-29T12:53:04Z</time>
      </trkpt>
      <trkpt lat="48.7024" lon="7.32248">
        <ele>410.5</ele>
        <time>2011-05-29T12:53:10Z</time>
      </trkpt>
      <trkpt lat="48.70217" lon="7.32269">
        <ele>410.5</ele>
        <time>2011-05-29T12:53:15Z</time>
      </trkpt>
      <trkpt lat="48.70191" lon="7.32297">
        <ele>411.3</ele>
        <time>2011-05-29T12:53:21Z</time>
      </trkpt>
      <trkpt lat="48.70165" lon="7.32323">
        <ele>411.3</ele>
        <time>2011-05-29T12:53:26Z</time>
      </trkpt>
      <trkpt lat="48.70137" lon="7.32343">
        <ele>410.3</ele>
        <time>2011-05-29T12:53:32Z</time>
      </trkpt>
      <trkpt lat="48.70111" lon="7.32372">
        <ele>411.4</ele>
        <time>2011-05-29T12:53:38Z</time>
      </trkpt>
      <trkpt lat="48.70091" lon="7.32406">
        <ele>414.4</ele>
        <time>2011-05-29T12:53:44Z</time>
      </trkpt>
      <trkpt lat="48.70065" lon="7.3242">
        <ele>411.5</ele>
        <time>2011-05-29T12:53:49Z</time>
      </trkpt>
      <trkpt lat="48.70037" lon="7.32438">
        <ele>408.4</ele>
        <time>2011-05-29T12:53:56Z</time>
      </trkpt>
      <trkpt lat="48.7001" lon="7.3246">
        <ele>405.6</ele>
        <time>2011-05-29T12:54:04Z</time>
      </trkpt>
      <trkpt lat="48.69985" lon="7.32476">
        <ele>403.7</ele>
        <time>2011-05-29T12:54:09Z</time>
      </trkpt>
      <trkpt lat="48.69959" lon="7.32492">
        <ele>402.8</ele>
        <time>2011-05-29T12:54:17Z</time>
      </trkpt>
      <trkpt lat="48.69929" lon="7.32518">
        <ele>401.8</ele>
        <time>2011-05-29T12:54:23Z</time>
      </trkpt>
      <trkpt lat="48.69906" lon="7.32548">
        <ele>400.2</ele>
        <time>2011-05-29T12:54:28Z</time>
      </trkpt>
      <trkpt lat="48.69878" lon="7.32576">
        <ele>398.6</ele>
        <time>2011-05-29T12:54:33Z</time>
      </trkpt>
      <trkpt lat="48.69854" lon="7.32605">
        <ele>399.5</ele>
        <time>2011-05-29T12:54:37Z</time>
      </trkpt>
      <trkpt lat="48.69829" lon="7.32622">
        <ele>398.6</ele>
        <time>2011-05-29T12:54:41Z</time>
      </trkpt>
      <trkpt lat="48.698" lon="7.32645">
        <ele>398.8</ele>
        <time>2011-05-29T12:54:45Z</time>
      </trkpt>
      <trkpt lat="48.69774" lon="7.32657">
        <ele>397.4</ele>
        <time>2011-05-29T12:54:50Z</time>
      </trkpt>
      <trkpt lat="48.69747" lon="7.32668">
        <ele>395.8</ele>
        <time>2011-05-29T12:54:57Z</time>
      </trkpt>
      <trkpt lat="48.69717" lon="7.3266">
        <ele>392.3</ele>
        <time>2011-05-29T12:55:05Z</time>
      </trkpt>
      <trkpt lat="48.69688" lon="7.32659">
        <ele>389.8</ele>
        <time>2011-05-29T12:55:12Z</time>
      </trkpt>
      <trkpt lat="48.69661" lon="7.32645">
        <ele>388</ele>
        <time>2011-05-29T12:55:20Z</time>
      </trkpt>
      <trkpt lat="48.69636" lon="7.32628">
        <ele>389.2</ele>
        <time>2011-05-29T12:55:29Z</time>
      </trkpt>
      <trkpt lat="48.69623" lon="7.32592">
        <ele>390.1</ele>
        <time>2011-05-29T12:56:08Z</time>
      </trkpt>
      <trkpt lat="48.69622" lon="7.32547">
        <ele>389.8</ele>
        <time>2011-05-29T12:56:16Z</time>
      </trkpt>
      <trkpt lat="48.69642" lon="7.32513">
        <ele>387.6</ele>
        <time>2011-05-29T12:56:24Z</time>
      </trkpt>
      <trkpt lat="48.69663" lon="7.32484">
        <ele>386.9</ele>
        <time>2011-05-29T12:56:31Z</time>
      </trkpt>
      <trkpt lat="48.6968" lon="7.32451">
        <ele>388.1</ele>
        <time>2011-05-29T12:56:37Z</time>
      </trkpt>
      <trkpt lat="48.69706" lon="7.32427">
        <ele>387.7</ele>
        <time>2011-05-29T12:56:43Z</time>
      </trkpt>
      <trkpt lat="48.69733" lon="7.32415">
        <ele>386.2</ele>
        <time>2011-05-29T12:56:49Z</time>
      </trkpt>
      <trkpt lat="48.69759" lon="7.32391">
        <ele>387.9</ele>
        <time>2011-05-29T12:56:58Z</time>
      </trkpt>
      <trkpt lat="48.6978" lon="7.32365">
        <ele>388.3</ele>
        <time>2011-05-29T12:57:04Z</time>
      </trkpt>
      <trkpt lat="48.698" lon="7.32336">
        <ele>388.2</ele>
        <time>2011-05-29T12:57:10Z</time>
      </trkpt>
      <trkpt lat="48.69821" lon="7.32302">
        <ele>389.1</ele>
        <time>2011-05-29T12:57:17Z</time>
      </trkpt>
      <trkpt lat="48.69841" lon="7.32275">
        <ele>389.4</ele>
        <time>2011-05-29T12:57:23Z</time>
      </trkpt>
      <trkpt lat="48.69862" lon="7.32246">
        <ele>389.2</ele>
        <time>2011-05-29T12:57:29Z</time>
      </trkpt>
      <trkpt lat="48.69886" lon="7.3222">
        <ele>388.2</ele>
        <time>2011-05-29T12:57:35Z</time>
      </trkpt>
      <trkpt lat="48.69906" lon="7.3219">
        <ele>388.1</ele>
        <time>2011-05-29T12:57:41Z</time>
      </trkpt>
      <trkpt lat="48.69925" lon="7.3216">
        <ele>387.9</ele>
        <time>2011-05-29T12:57:47Z</time>
      </trkpt>
      <trkpt lat="48.69945" lon="7.32124">
        <ele>388</ele>
        <time>2011-05-29T12:57:54Z</time>
      </trkpt>
      <trkpt lat="48.69964" lon="7.32091">
        <ele>388.1</ele>
        <time>2011-05-29T12:58:00Z</time>
      </trkpt>
      <trkpt lat="48.69983" lon="7.3206">
        <ele>388</ele>
        <time>2011-05-29T12:58:06Z</time>
      </trkpt>
      <trkpt lat="48.69998" lon="7.32026">
        <ele>388.8</ele>
        <time>2011-05-29T12:58:12Z</time>
      </trkpt>
      <trkpt lat="48.70017" lon="7.31991">
        <ele>388.8</ele>
        <time>2011-05-29T12:58:19Z</time>
      </trkpt>
      <trkpt lat="48.70036" lon="7.31959">
        <ele>390.2</ele>
        <time>2011-05-29T12:58:26Z</time>
      </trkpt>
      <trkpt lat="48.70056" lon="7.31927">
        <ele>391.5</ele>
        <time>2011-05-29T12:58:33Z</time>
      </trkpt>
      <trkpt lat="48.70075" lon="7.31895">
        <ele>393.5</ele>
        <time>2011-05-29T12:58:39Z</time>
      </trkpt>
      <trkpt lat="48.70093" lon="7.3186">
        <ele>395.7</ele>
        <time>2011-05-29T12:58:45Z</time>
      </trkpt>
      <trkpt lat="48.7011" lon="7.31821">
        <ele>398.2</ele>
        <time>2011-05-29T12:58:51Z</time>
      </trkpt>
      <trkpt lat="48.70124" lon="7.3178">
        <ele>400.3</ele>
        <time>2011-05-29T12:58:57Z</time>
      </trkpt>
      <trkpt lat="48.70134" lon="7.31739">
        <ele>402.6</ele>
        <time>2011-05-29T12:59:03Z</time>
      </trkpt>
      <trkpt lat="48.70131" lon="7.31691">
        <ele>404.3</ele>
        <time>2011-05-29T12:59:09Z</time>
      </trkpt>
      <trkpt lat="48.70127" lon="7.31645">
        <ele>405.7</ele>
        <time>2011-05-29T12:59:15Z</time>
      </trkpt>
      <trkpt lat="48.70124" lon="7.31599">
        <ele>405.9</ele>
        <time>2011-05-29T12:59:20Z</time>
      </trkpt>
      <trkpt lat="48.70118" lon="7.31559">
        <ele>404.9</ele>
        <time>2011-05-29T12:59:26Z</time>
      </trkpt>
      <trkpt lat="48.70109" lon="7.31515">
        <ele>402.7</ele>
        <time>2011-05-29T12:59:35Z</time>
      </trkpt>
      <trkpt lat="48.70092" lon="7.31481">
        <ele>401.5</ele>
        <time>2011-05-29T12:59:40Z</time>
      </trkpt>
      <trkpt lat="48.70069" lon="7.31451">
        <ele>401.6</ele>
        <time>2011-05-29T12:59:47Z</time>
      </trkpt>
      <trkpt lat="48.70041" lon="7.31428">
        <ele>403</ele>
        <time>2011-05-29T12:59:53Z</time>
      </trkpt>
      <trkpt lat="48.70011" lon="7.31414">
        <ele>404.7</ele>
        <time>2011-05-29T12:59:59Z</time>
      </trkpt>
      <trkpt lat="48.69984" lon="7.31402">
        <ele>404.3</ele>
        <time>2011-05-29T13:00:06Z</time>
      </trkpt>
      <trkpt lat="48.69957" lon="7.31395">
        <ele>404</ele>
        <time>2011-05-29T13:00:15Z</time>
      </trkpt>
      <trkpt lat="48.6993" lon="7.31396">
        <ele>405.5</ele>
        <time>2011-05-29T13:00:27Z</time>
      </trkpt>
      <trkpt lat="48.69903" lon="7.314">
        <ele>406.1</ele>
        <time>2011-05-29T13:00:35Z</time>
      </trkpt>
      <trkpt lat="48.69874" lon="7.31407">
        <ele>405.3</ele>
        <time>2011-05-29T13:00:44Z</time>
      </trkpt>
      <trkpt lat="48.69848" lon="7.3142">
        <ele>405.9</ele>
        <time>2011-05-29T13:00:53Z</time>
      </trkpt>
      <trkpt lat="48.69824" lon="7.31439">
        <ele>407.9</ele>
        <time>2011-05-29T13:01:01Z</time>
      </trkpt>
      <trkpt lat="48.69803" lon="7.31464">
        <ele>410.5</ele>
        <time>2011-05-29T13:01:09Z</time>
      </trkpt>
      <trkpt lat="48.69778" lon="7.31484">
        <ele>411.6</ele>
        <time>2011-05-29T13:01:21Z</time>
      </trkpt>
      <trkpt lat="48.69755" lon="7.31509">
        <ele>414.2</ele>
        <time>2011-05-29T13:01:31Z</time>
      </trkpt>
      <trkpt lat="48.69727" lon="7.31531">
        <ele>417.9</ele>
        <time>2011-05-29T13:01:39Z</time>
      </trkpt>
      <trkpt lat="48.697" lon="7.3154">
        <ele>418.5</ele>
        <time>2011-05-29T13:01:47Z</time>
      </trkpt>
      <trkpt lat="48.69672" lon="7.31529">
        <ele>413.5</ele>
        <time>2011-05-29T13:01:56Z</time>
      </trkpt>
      <trkpt lat="48.69648" lon="7.31505">
        <ele>413</ele>
        <time>2011-05-29T13:02:02Z</time>
      </trkpt>
      <trkpt lat="48.69629" lon="7.31476">
        <ele>414.3</ele>
        <time>2011-05-29T13:02:10Z</time>
      </trkpt>
      <trkpt lat="48.69614" lon="7.3144">
        <ele>414</ele>
        <time>2011-05-29T13:02:19Z</time>
      </trkpt>
      <trkpt lat="48.69603" lon="7.31397">
        <ele>411.9</ele>
        <time>2011-05-29T13:02:26Z</time>
      </trkpt>
      <trkpt lat="48.69584" lon="7.31362">
        <ele>413.7</ele>
        <time>2011-05-29T13:02:35Z</time>
      </trkpt>
      <trkpt lat="48.69567" lon="7.31324">
        <ele>412.8</ele>
        <time>2011-05-29T13:02:44Z</time>
      </trkpt>
      <trkpt lat="48.69548" lon="7.31294">
        <ele>412.7</ele>
        <time>2011-05-29T13:02:51Z</time>
      </trkpt>
      <trkpt lat="48.69525" lon="7.31266">
        <ele>414.4</ele>
        <time>2011-05-29T13:02:58Z</time>
      </trkpt>
      <trkpt lat="48.69505" lon="7.31238">
        <ele>415.5</ele>
        <time>2011-05-29T13:03:07Z</time>
      </trkpt>
      <trkpt lat="48.69482" lon="7.31213">
        <ele>416.4</ele>
        <time>2011-05-29T13:03:15Z</time>
      </trkpt>
      <trkpt lat="48.69456" lon="7.31194">
        <ele>418.2</ele>
        <time>2011-05-29T13:03:23Z</time>
      </trkpt>
      <trkpt lat="48.69429" lon="7.31182">
        <ele>421.1</ele>
        <time>2011-05-29T13:03:31Z</time>
      </trkpt>
      <trkpt lat="48.69402" lon="7.31172">
        <ele>422.6</ele>
        <time>2011-05-29T13:03:39Z</time>
      </trkpt>
      <trkpt lat="48.69374" lon="7.31159">
        <ele>422.4</ele>
        <time>2011-05-29T13:03:47Z</time>
      </trkpt>
      <trkpt lat="48.69345" lon="7.31148">
        <ele>422.5</ele>
        <time>2011-05-29T13:03:55Z</time>
      </trkpt>
      <trkpt lat="48.69315" lon="7.31142">
        <ele>422.9</ele>
        <time>2011-05-29T13:04:05Z</time>
      </trkpt>
      <trkpt lat="48.69287" lon="7.31139">
        <ele>422.8</ele>
        <time>2011-05-29T13:04:18Z</time>
      </trkpt>
      <trkpt lat="48.69257" lon="7.31135">
        <ele>422.5</ele>
        <time>2011-05-29T13:04:29Z</time>
      </trkpt>
      <trkpt lat="48.69229" lon="7.31136">
        <ele>423.9</ele>
        <time>2011-05-29T13:04:38Z</time>
      </trkpt>
      <trkpt lat="48.69201" lon="7.31132">
        <ele>423.9</ele>
        <time>2011-05-29T13:04:47Z</time>
      </trkpt>
      <trkpt lat="48.69174" lon="7.31133">
        <ele>425.5</ele>
        <time>2011-05-29T13:04:56Z</time>
      </trkpt>
      <trkpt lat="48.69145" lon="7.3113">
        <ele>425.6</ele>
        <time>2011-05-29T13:05:05Z</time>
      </trkpt>
      <trkpt lat="48.69115" lon="7.31132">
        <ele>426.9</ele>
        <time>2011-05-29T13:05:14Z</time>
      </trkpt>
      <trkpt lat="48.69089" lon="7.31129">
        <ele>426.8</ele>
        <time>2011-05-29T13:05:22Z</time>
      </trkpt>
      <trkpt lat="48.6906" lon="7.31125">
        <ele>428.4</ele>
        <time>2011-05-29T13:05:29Z</time>
      </trkpt>
      <trkpt lat="48.69032" lon="7.31117">
        <ele>429.4</ele>
        <time>2011-05-29T13:05:36Z</time>
      </trkpt>
      <trkpt lat="48.69002" lon="7.31109">
        <ele>430.6</ele>
        <time>2011-05-29T13:05:43Z</time>
      </trkpt>
      <trkpt lat="48.68974" lon="7.31103">
        <ele>431.4</ele>
        <time>2011-05-29T13:05:49Z</time>
      </trkpt>
      <trkpt lat="48.68945" lon="7.31096">
        <ele>431.9</ele>
        <time>2011-05-29T13:05:57Z</time>
      </trkpt>
      <trkpt lat="48.6892" lon="7.3108">
        <ele>429.9</ele>
        <time>2011-05-29T13:06:03Z</time>
      </trkpt>
      <trkpt lat="48.68891" lon="7.31071">
        <ele>429.1</ele>
        <time>2011-05-29T13:06:15Z</time>
      </trkpt>
      <trkpt lat="48.68863" lon="7.31077">
        <ele>431.9</ele>
        <time>2011-05-29T13:06:25Z</time>
      </trkpt>
      <trkpt lat="48.68835" lon="7.31082">
        <ele>434.6</ele>
        <time>2011-05-29T13:06:38Z</time>
      </trkpt>
      <trkpt lat="48.68808" lon="7.31085">
        <ele>434.8</ele>
        <time>2011-05-29T13:06:48Z</time>
      </trkpt>
      <trkpt lat="48.68782" lon="7.31097">
        <ele>436.3</ele>
        <time>2011-05-29T13:06:59Z</time>
      </trkpt>
      <trkpt lat="48.68758" lon="7.31124">
        <ele>439.8</ele>
        <time>2011-05-29T13:07:14Z</time>
      </trkpt>
      <trkpt lat="48.68739" lon="7.31152">
        <ele>444.2</ele>
        <time>2011-05-29T13:07:26Z</time>
      </trkpt>
      <trkpt lat="48.68724" lon="7.31187">
        <ele>448.7</ele>
        <time>2011-05-29T13:07:38Z</time>
      </trkpt>
      <trkpt lat="48.68708" lon="7.31221">
        <ele>452.1</ele>
        <time>2011-05-29T13:07:51Z</time>
      </trkpt>
      <trkpt lat="48.6868" lon="7.31229">
        <ele>453.2</ele>
        <time>2011-05-29T13:08:04Z</time>
      </trkpt>
      <trkpt lat="48.68656" lon="7.31211">
        <ele>453.8</ele>
        <time>2011-05-29T13:08:22Z</time>
      </trkpt>
      <trkpt lat="48.68631" lon="7.31192">
        <ele>456.3</ele>
        <time>2011-05-29T13:08:45Z</time>
      </trkpt>
      <trkpt lat="48.68605" lon="7.31177">
        <ele>459.2</ele>
        <time>2011-05-29T13:09:06Z</time>
      </trkpt>
      <trkpt lat="48.68579" lon="7.31168">
        <ele>462.5</ele>
        <time>2011-05-29T13:09:21Z</time>
      </trkpt>
      <trkpt lat="48.68553" lon="7.31156">
        <ele>464</ele>
        <time>2011-05-29T13:09:38Z</time>
      </trkpt>
      <trkpt lat="48.68527" lon="7.31145">
        <ele>465.6</ele>
        <time>2011-05-29T13:09:54Z</time>
      </trkpt>
      <trkpt lat="48.68498" lon="7.31137">
        <ele>467.6</ele>
        <time>2011-05-29T13:10:05Z</time>
      </trkpt>
      <trkpt lat="48.68469" lon="7.31131">
        <ele>469.1</ele>
        <time>2011-05-29T13:10:13Z</time>
      </trkpt>
      <trkpt lat="48.68441" lon="7.31138">
        <ele>471.8</ele>
        <time>2011-05-29T13:10:26Z</time>
      </trkpt>
      <trkpt lat="48.68417" lon="7.31155">
        <ele>475.6</ele>
        <time>2011-05-29T13:10:42Z</time>
      </trkpt>
      <trkpt lat="48.68388" lon="7.31165">
        <ele>478.5</ele>
        <time>2011-05-29T13:10:50Z</time>
      </trkpt>
      <trkpt lat="48.6836" lon="7.31171">
        <ele>480.6</ele>
        <time>2011-05-29T13:10:57Z</time>
      </trkpt>
      <trkpt lat="48.68333" lon="7.31173">
        <ele>482.4</ele>
        <time>2011-05-29T13:11:07Z</time>
      </trkpt>
      <trkpt lat="48.68303" lon="7.31179">
        <ele>481.4</ele>
        <time>2011-05-29T13:11:15Z</time>
      </trkpt>
      <trkpt lat="48.68273" lon="7.31179">
        <ele>480.1</ele>
        <time>2011-05-29T13:11:20Z</time>
      </trkpt>
      <trkpt lat="48.68245" lon="7.3119">
        <ele>479</ele>
        <time>2011-05-29T13:11:24Z</time>
      </trkpt>
      <trkpt lat="48.68197" lon="7.31193">
        <ele>476.2</ele>
        <time>2011-05-29T13:11:26Z</time>
      </trkpt>
      <trkpt lat="48.68173" lon="7.31167">
        <ele>475.3</ele>
        <time>2011-05-29T13:11:28Z</time>
      </trkpt>
      <trkpt lat="48.68151" lon="7.31195">
        <ele>476.4</ele>
        <time>2011-05-29T13:11:35Z</time>
      </trkpt>
      <trkpt lat="48.68119" lon="7.31201">
        <ele>480.2</ele>
        <time>2011-05-29T13:11:43Z</time>
      </trkpt>
      <trkpt lat="48.68093" lon="7.31208">
        <ele>483.3</ele>
        <time>2011-05-29T13:11:49Z</time>
      </trkpt>
      <trkpt lat="48.68066" lon="7.31223">
        <ele>485.9</ele>
        <time>2011-05-29T13:11:59Z</time>
      </trkpt>
      <trkpt lat="48.68043" lon="7.31247">
        <ele>487.5</ele>
        <time>2011-05-29T13:12:08Z</time>
      </trkpt>
      <trkpt lat="48.6802" lon="7.31266">
        <ele>487.9</ele>
        <time>2011-05-29T13:12:17Z</time>
      </trkpt>
      <trkpt lat="48.68002" lon="7.31285">
        <ele>487.6</ele>
        <time>2011-05-29T13:12:25Z</time>
      </trkpt>
      <trkpt lat="48.67978" lon="7.31288">
        <ele>485.5</ele>
        <time>2011-05-29T13:12:34Z</time>
      </trkpt>
      <trkpt lat="48.67951" lon="7.31271">
        <ele>486.5</ele>
        <time>2011-05-29T13:12:44Z</time>
      </trkpt>
      <trkpt lat="48.67924" lon="7.3125">
        <ele>490.1</ele>
        <time>2011-05-29T13:12:51Z</time>
      </trkpt>
      <trkpt lat="48.67895" lon="7.31239">
        <ele>492.6</ele>
        <time>2011-05-29T13:12:57Z</time>
      </trkpt>
      <trkpt lat="48.67866" lon="7.31237">
        <ele>494.2</ele>
        <time>2011-05-29T13:13:03Z</time>
      </trkpt>
      <trkpt lat="48.67838" lon="7.31241">
        <ele>494.4</ele>
        <time>2011-05-29T13:13:09Z</time>
      </trkpt>
      <trkpt lat="48.67808" lon="7.31253">
        <ele>494</ele>
        <time>2011-05-29T13:13:16Z</time>
      </trkpt>
      <trkpt lat="48.67782" lon="7.31266">
        <ele>491.3</ele>
        <time>2011-05-29T13:13:23Z</time>
      </trkpt>
      <trkpt lat="48.67752" lon="7.31264">
        <ele>495.6</ele>
        <time>2011-05-29T13:13:32Z</time>
      </trkpt>
      <trkpt lat="48.67725" lon="7.31256">
        <ele>502</ele>
        <time>2011-05-29T13:13:38Z</time>
      </trkpt>
      <trkpt lat="48.67696" lon="7.31254">
        <ele>505.4</ele>
        <time>2011-05-29T13:13:45Z</time>
      </trkpt>
      <trkpt lat="48.67669" lon="7.31259">
        <ele>505.7</ele>
        <time>2011-05-29T13:13:52Z</time>
      </trkpt>
      <trkpt lat="48.67641" lon="7.3128">
        <ele>495</ele>
        <time>2011-05-29T13:14:00Z</time>
      </trkpt>
      <trkpt lat="48.67614" lon="7.31291">
        <ele>488.9</ele>
        <time>2011-05-29T13:14:07Z</time>
      </trkpt>
      <trkpt lat="48.67585" lon="7.31288">
        <ele>488.5</ele>
        <time>2011-05-29T13:14:13Z</time>
      </trkpt>
      <trkpt lat="48.67555" lon="7.31275">
        <ele>482.9</ele>
        <time>2011-05-29T13:14:19Z</time>
      </trkpt>
      <trkpt lat="48.67534" lon="7.31249">
        <ele>483.3</ele>
        <time>2011-05-29T13:14:25Z</time>
      </trkpt>
      <trkpt lat="48.67518" lon="7.31208">
        <ele>484.3</ele>
        <time>2011-05-29T13:14:31Z</time>
      </trkpt>
      <trkpt lat="48.6751" lon="7.31164">
        <ele>487.4</ele>
        <time>2011-05-29T13:14:37Z</time>
      </trkpt>
      <trkpt lat="48.67505" lon="7.31122">
        <ele>485.7</ele>
        <time>2011-05-29T13:14:42Z</time>
      </trkpt>
      <trkpt lat="48.67507" lon="7.31079">
        <ele>487.5</ele>
        <time>2011-05-29T13:14:47Z</time>
      </trkpt>
      <trkpt lat="48.67513" lon="7.31034">
        <ele>489.6</ele>
        <time>2011-05-29T13:14:52Z</time>
      </trkpt>
      <trkpt lat="48.67515" lon="7.3099">
        <ele>490.4</ele>
        <time>2011-05-29T13:14:57Z</time>
      </trkpt>
      <trkpt lat="48.6751" lon="7.30948">
        <ele>491.3</ele>
        <time>2011-05-29T13:15:02Z</time>
      </trkpt>
      <trkpt lat="48.67498" lon="7.30907">
        <ele>489.9</ele>
        <time>2011-05-29T13:15:07Z</time>
      </trkpt>
      <trkpt lat="48.6749" lon="7.30861">
        <ele>495.3</ele>
        <time>2011-05-29T13:15:13Z</time>
      </trkpt>
      <trkpt lat="48.67476" lon="7.30823">
        <ele>495.6</ele>
        <time>2011-05-29T13:15:17Z</time>
      </trkpt>
      <trkpt lat="48.67462" lon="7.3078">
        <ele>498</ele>
        <time>2011-05-29T13:15:23Z</time>
      </trkpt>
      <trkpt lat="48.67447" lon="7.30744">
        <ele>498.4</ele>
        <time>2011-05-29T13:15:28Z</time>
      </trkpt>
      <trkpt lat="48.67432" lon="7.30707">
        <ele>498.2</ele>
        <time>2011-05-29T13:15:34Z</time>
      </trkpt>
      <trkpt lat="48.67415" lon="7.30668">
        <ele>497.9</ele>
        <time>2011-05-29T13:15:40Z</time>
      </trkpt>
      <trkpt lat="48.67401" lon="7.30633">
        <ele>494</ele>
        <time>2011-05-29T13:15:46Z</time>
      </trkpt>
      <trkpt lat="48.67387" lon="7.30597">
        <ele>491.2</ele>
        <time>2011-05-29T13:15:52Z</time>
      </trkpt>
      <trkpt lat="48.67378" lon="7.30558">
        <ele>487.1</ele>
        <time>2011-05-29T13:15:58Z</time>
      </trkpt>
      <trkpt lat="48.67379" lon="7.30516">
        <ele>487.6</ele>
        <time>2011-05-29T13:16:05Z</time>
      </trkpt>
      <trkpt lat="48.674" lon="7.30485">
        <ele>497.6</ele>
        <time>2011-05-29T13:16:12Z</time>
      </trkpt>
      <trkpt lat="48.67411" lon="7.30446">
        <ele>501.8</ele>
        <time>2011-05-29T13:16:19Z</time>
      </trkpt>
      <trkpt lat="48.67416" lon="7.30402">
        <ele>504.8</ele>
        <time>2011-05-29T13:16:27Z</time>
      </trkpt>
      <trkpt lat="48.6741" lon="7.30362">
        <ele>505</ele>
        <time>2011-05-29T13:16:35Z</time>
      </trkpt>
      <trkpt lat="48.67397" lon="7.30317">
        <ele>506</ele>
        <time>2011-05-29T13:16:45Z</time>
      </trkpt>
      <trkpt lat="48.67382" lon="7.30279">
        <ele>509.6</ele>
        <time>2011-05-29T13:16:54Z</time>
      </trkpt>
      <trkpt lat="48.67357" lon="7.30253">
        <ele>507.6</ele>
        <time>2011-05-29T13:17:01Z</time>
      </trkpt>
      <trkpt lat="48.67334" lon="7.30232">
        <ele>505</ele>
        <time>2011-05-29T13:17:08Z</time>
      </trkpt>
      <trkpt lat="48.67311" lon="7.3021">
        <ele>505.7</ele>
        <time>2011-05-29T13:17:14Z</time>
      </trkpt>
      <trkpt lat="48.67286" lon="7.30182">
        <ele>507.6</ele>
        <time>2011-05-29T13:17:22Z</time>
      </trkpt>
      <trkpt lat="48.67262" lon="7.30156">
        <ele>508.4</ele>
        <time>2011-05-29T13:17:31Z</time>
      </trkpt>
      <trkpt lat="48.6724" lon="7.30123">
        <ele>508.1</ele>
        <time>2011-05-29T13:17:39Z</time>
      </trkpt>
      <trkpt lat="48.67225" lon="7.30085">
        <ele>510.6</ele>
        <time>2011-05-29T13:17:47Z</time>
      </trkpt>
      <trkpt lat="48.67215" lon="7.30044">
        <ele>509.4</ele>
        <time>2011-05-29T13:17:54Z</time>
      </trkpt>
      <trkpt lat="48.67211" lon="7.3">
        <ele>509.2</ele>
        <time>2011-05-29T13:18:00Z</time>
      </trkpt>
      <trkpt lat="48.67214" lon="7.29955">
        <ele>510.4</ele>
        <time>2011-05-29T13:18:07Z</time>
      </trkpt>
      <trkpt lat="48.67218" lon="7.29914">
        <ele>511.9</ele>
        <time>2011-05-29T13:18:13Z</time>
      </trkpt>
      <trkpt lat="48.67223" lon="7.29872">
        <ele>513.5</ele>
        <time>2011-05-29T13:18:19Z</time>
      </trkpt>
      <trkpt lat="48.67229" lon="7.29828">
        <ele>514.6</ele>
        <time>2011-05-29T13:18:26Z</time>
      </trkpt>
      <trkpt lat="48.67231" lon="7.29786">
        <ele>513.7</ele>
        <time>2011-05-29T13:18:33Z</time>
      </trkpt>
      <trkpt lat="48.67238" lon="7.29745">
        <ele>514.4</ele>
        <time>2011-05-29T13:18:41Z</time>
      </trkpt>
      <trkpt lat="48.67244" lon="7.29705">
        <ele>517.6</ele>
        <time>2011-05-29T13:18:48Z</time>
      </trkpt>
      <trkpt lat="48.67245" lon="7.29661">
        <ele>520.3</ele>
        <time>2011-05-29T13:18:58Z</time>
      </trkpt>
      <trkpt lat="48.67233" lon="7.2962">
        <ele>525.8</ele>
        <time>2011-05-29T13:19:07Z</time>
      </trkpt>
      <trkpt lat="48.67207" lon="7.29591">
        <ele>523.9</ele>
        <time>2011-05-29T13:19:16Z</time>
      </trkpt>
      <trkpt lat="48.67171" lon="7.29563">
        <ele>521.1</ele>
        <time>2011-05-29T13:19:21Z</time>
      </trkpt>
      <trkpt lat="48.67142" lon="7.2955">
        <ele>518.4</ele>
        <time>2011-05-29T13:19:27Z</time>
      </trkpt>
      <trkpt lat="48.67115" lon="7.29544">
        <ele>513.7</ele>
        <time>2011-05-29T13:19:32Z</time>
      </trkpt>
      <trkpt lat="48.67089" lon="7.29522">
        <ele>514.6</ele>
        <time>2011-05-29T13:19:40Z</time>
      </trkpt>
      <trkpt lat="48.67067" lon="7.2949">
        <ele>516.8</ele>
        <time>2011-05-29T13:19:47Z</time>
      </trkpt>
      <trkpt lat="48.67054" lon="7.29447">
        <ele>524</ele>
        <time>2011-05-29T13:19:57Z</time>
      </trkpt>
      <trkpt lat="48.67035" lon="7.29411">
        <ele>526.5</ele>
        <time>2011-05-29T13:20:06Z</time>
      </trkpt>
      <trkpt lat="48.67014" lon="7.29373">
        <ele>525.7</ele>
        <time>2011-05-29T13:20:13Z</time>
      </trkpt>
      <trkpt lat="48.66992" lon="7.29341">
        <ele>522.4</ele>
        <time>2011-05-29T13:20:19Z</time>
      </trkpt>
      <trkpt lat="48.66977" lon="7.29304">
        <ele>522.8</ele>
        <time>2011-05-29T13:20:25Z</time>
      </trkpt>
      <trkpt lat="48.66962" lon="7.29271">
        <ele>523.4</ele>
        <time>2011-05-29T13:20:35Z</time>
      </trkpt>
      <trkpt lat="48.66953" lon="7.29225">
        <ele>527.4</ele>
        <time>2011-05-29T13:21:11Z</time>
      </trkpt>
      <trkpt lat="48.66947" lon="7.29184">
        <ele>529.8</ele>
        <time>2011-05-29T13:21:18Z</time>
      </trkpt>
      <trkpt lat="48.66938" lon="7.29142">
        <ele>529.8</ele>
        <time>2011-05-29T13:21:25Z</time>
      </trkpt>
      <trkpt lat="48.6693" lon="7.29096">
        <ele>528.6</ele>
        <time>2011-05-29T13:21:31Z</time>
      </trkpt>
      <trkpt lat="48.66918" lon="7.29051">
        <ele>525.6</ele>
        <time>2011-05-29T13:21:36Z</time>
      </trkpt>
      <trkpt lat="48.66912" lon="7.29003">
        <ele>523.2</ele>
        <time>2011-05-29T13:21:41Z</time>
      </trkpt>
      <trkpt lat="48.66906" lon="7.2896">
        <ele>522.9</ele>
        <time>2011-05-29T13:21:46Z</time>
      </trkpt>
      <trkpt lat="48.669" lon="7.28916">
        <ele>523.1</ele>
        <time>2011-05-29T13:21:52Z</time>
      </trkpt>
      <trkpt lat="48.66894" lon="7.28871">
        <ele>522.8</ele>
        <time>2011-05-29T13:22:00Z</time>
      </trkpt>
      <trkpt lat="48.66886" lon="7.28829">
        <ele>523.5</ele>
        <time>2011-05-29T13:22:10Z</time>
      </trkpt>
      <trkpt lat="48.66866" lon="7.28796">
        <ele>525.4</ele>
        <time>2011-05-29T13:22:19Z</time>
      </trkpt>
      <trkpt lat="48.66847" lon="7.28768">
        <ele>528.4</ele>
        <time>2011-05-29T13:22:28Z</time>
      </trkpt>
      <trkpt lat="48.66834" lon="7.28734">
        <ele>531</ele>
        <time>2011-05-29T13:22:40Z</time>
      </trkpt>
      <trkpt lat="48.66823" lon="7.28694">
        <ele>532</ele>
        <time>2011-05-29T13:22:53Z</time>
      </trkpt>
      <trkpt lat="48.66818" lon="7.28653">
        <ele>532.6</ele>
        <time>2011-05-29T13:23:06Z</time>
      </trkpt>
      <trkpt lat="48.66811" lon="7.28613">
        <ele>533.3</ele>
        <time>2011-05-29T13:23:19Z</time>
      </trkpt>
      <trkpt lat="48.66808" lon="7.28571">
        <ele>533.6</ele>
        <time>2011-05-29T13:23:32Z</time>
      </trkpt>
      <trkpt lat="48.66791" lon="7.28535">
        <ele>535.5</ele>
        <time>2011-05-29T13:23:44Z</time>
      </trkpt>
      <trkpt lat="48.66776" lon="7.28496">
        <ele>536.9</ele>
        <time>2011-05-29T13:23:56Z</time>
      </trkpt>
      <trkpt lat="48.66759" lon="7.28463">
        <ele>537.8</ele>
        <time>2011-05-29T13:24:07Z</time>
      </trkpt>
      <trkpt lat="48.66736" lon="7.28439">
        <ele>539.3</ele>
        <time>2011-05-29T13:24:16Z</time>
      </trkpt>
      <trkpt lat="48.66708" lon="7.28433">
        <ele>541.8</ele>
        <time>2011-05-29T13:24:32Z</time>
      </trkpt>
      <trkpt lat="48.66681" lon="7.28416">
        <ele>543.6</ele>
        <time>2011-05-29T13:24:50Z</time>
      </trkpt>
      <trkpt lat="48.66651" lon="7.28404">
        <ele>544.9</ele>
        <time>2011-05-29T13:25:02Z</time>
      </trkpt>
      <trkpt lat="48.66623" lon="7.28394">
        <ele>545.8</ele>
        <time>2011-05-29T13:25:15Z</time>
      </trkpt>
      <trkpt lat="48.66596" lon="7.28384">
        <ele>546.5</ele>
        <time>2011-05-29T13:25:30Z</time>
      </trkpt>
      <trkpt lat="48.66568" lon="7.28368">
        <ele>546.5</ele>
        <time>2011-05-29T13:25:38Z</time>
      </trkpt>
      <trkpt lat="48.6654" lon="7.28352">
        <ele>546.6</ele>
        <time>2011-05-29T13:25:58Z</time>
      </trkpt>
      <trkpt lat="48.66512" lon="7.28346">
        <ele>547.3</ele>
        <time>2011-05-29T13:26:10Z</time>
      </trkpt>
      <trkpt lat="48.66484" lon="7.2833">
        <ele>548.8</ele>
        <time>2011-05-29T13:26:19Z</time>
      </trkpt>
      <trkpt lat="48.66459" lon="7.28308">
        <ele>551.3</ele>
        <time>2011-05-29T13:26:36Z</time>
      </trkpt>
      <trkpt lat="48.66435" lon="7.28285">
        <ele>554.4</ele>
        <time>2011-05-29T13:26:49Z</time>
      </trkpt>
      <trkpt lat="48.66414" lon="7.28256">
        <ele>557.3</ele>
        <time>2011-05-29T13:30:27Z</time>
      </trkpt>
      <trkpt lat="48.66399" lon="7.28223">
        <ele>558.3</ele>
        <time>2011-05-29T13:30:40Z</time>
      </trkpt>
      <trkpt lat="48.66388" lon="7.28185">
        <ele>558.2</ele>
        <time>2011-05-29T13:30:56Z</time>
      </trkpt>
      <trkpt lat="48.66368" lon="7.28154">
        <ele>559.6</ele>
        <time>2011-05-29T13:31:13Z</time>
      </trkpt>
      <trkpt lat="48.66345" lon="7.28128">
        <ele>561.1</ele>
        <time>2011-05-29T13:31:28Z</time>
      </trkpt>
      <trkpt lat="48.66316" lon="7.28124">
        <ele>563</ele>
        <time>2011-05-29T13:31:37Z</time>
      </trkpt>
      <trkpt lat="48.66288" lon="7.28119">
        <ele>563.2</ele>
        <time>2011-05-29T13:31:44Z</time>
      </trkpt>
      <trkpt lat="48.6626" lon="7.28117">
        <ele>563.8</ele>
        <time>2011-05-29T13:31:50Z</time>
      </trkpt>
      <trkpt lat="48.66231" lon="7.28126">
        <ele>564.9</ele>
        <time>2011-05-29T13:31:57Z</time>
      </trkpt>
      <trkpt lat="48.66201" lon="7.28127">
        <ele>564.7</ele>
        <time>2011-05-29T13:32:03Z</time>
      </trkpt>
      <trkpt lat="48.66174" lon="7.28126">
        <ele>564.2</ele>
        <time>2011-05-29T13:32:08Z</time>
      </trkpt>
      <trkpt lat="48.66137" lon="7.28128">
        <ele>564.8</ele>
        <time>2011-05-29T13:32:15Z</time>
      </trkpt>
      <trkpt lat="48.66107" lon="7.28139">
        <ele>566.5</ele>
        <time>2011-05-29T13:32:23Z</time>
      </trkpt>
      <trkpt lat="48.66078" lon="7.28144">
        <ele>568</ele>
        <time>2011-05-29T13:32:30Z</time>
      </trkpt>
      <trkpt lat="48.66051" lon="7.28135">
        <ele>570.4</ele>
        <time>2011-05-29T13:32:39Z</time>
      </trkpt>
      <trkpt lat="48.66026" lon="7.2812">
        <ele>571.5</ele>
        <time>2011-05-29T13:32:48Z</time>
      </trkpt>
      <trkpt lat="48.66001" lon="7.28104">
        <ele>572.6</ele>
        <time>2011-05-29T13:32:56Z</time>
      </trkpt>
      <trkpt lat="48.65976" lon="7.28085">
        <ele>572</ele>
        <time>2011-05-29T13:33:06Z</time>
      </trkpt>
      <trkpt lat="48.65944" lon="7.28093">
        <ele>575.4</ele>
        <time>2011-05-29T13:33:23Z</time>
      </trkpt>
      <trkpt lat="48.65919" lon="7.28106">
        <ele>579.2</ele>
        <time>2011-05-29T13:33:34Z</time>
      </trkpt>
      <trkpt lat="48.65894" lon="7.28122">
        <ele>583</ele>
        <time>2011-05-29T13:33:45Z</time>
      </trkpt>
      <trkpt lat="48.6588" lon="7.28159">
        <ele>589.5</ele>
        <time>2011-05-29T13:34:03Z</time>
      </trkpt>
      <trkpt lat="48.65836" lon="7.28129">
        <ele>587.9</ele>
        <time>2011-05-29T13:35:46Z</time>
      </trkpt>
      <trkpt lat="48.65802" lon="7.28115">
        <ele>584.4</ele>
        <time>2011-05-29T13:35:51Z</time>
      </trkpt>
      <trkpt lat="48.6577" lon="7.28126">
        <ele>584.6</ele>
        <time>2011-05-29T13:35:57Z</time>
      </trkpt>
      <trkpt lat="48.65743" lon="7.28142">
        <ele>585.5</ele>
        <time>2011-05-29T13:36:04Z</time>
      </trkpt>
      <trkpt lat="48.6572" lon="7.28164">
        <ele>586.7</ele>
        <time>2011-05-29T13:36:12Z</time>
      </trkpt>
      <trkpt lat="48.65699" lon="7.28194">
        <ele>589.9</ele>
        <time>2011-05-29T13:36:23Z</time>
      </trkpt>
      <trkpt lat="48.65675" lon="7.28212">
        <ele>591.3</ele>
        <time>2011-05-29T13:36:37Z</time>
      </trkpt>
      <trkpt lat="48.65651" lon="7.28227">
        <ele>592.2</ele>
        <time>2011-05-29T13:36:53Z</time>
      </trkpt>
      <trkpt lat="48.65625" lon="7.28242">
        <ele>592.9</ele>
        <time>2011-05-29T13:37:06Z</time>
      </trkpt>
      <trkpt lat="48.65599" lon="7.28251">
        <ele>592.6</ele>
        <time>2011-05-29T13:37:13Z</time>
      </trkpt>
      <trkpt lat="48.65566" lon="7.28265">
        <ele>593.7</ele>
        <time>2011-05-29T13:37:18Z</time>
      </trkpt>
      <trkpt lat="48.6554" lon="7.28261">
        <ele>593.4</ele>
        <time>2011-05-29T13:37:22Z</time>
      </trkpt>
      <trkpt lat="48.65514" lon="7.28257">
        <ele>593.1</ele>
        <time>2011-05-29T13:37:30Z</time>
      </trkpt>
      <trkpt lat="48.65489" lon="7.28253">
        <ele>593.3</ele>
        <time>2011-05-29T13:37:41Z</time>
      </trkpt>
      <trkpt lat="48.65462" lon="7.28248">
        <ele>593.8</ele>
        <time>2011-05-29T13:37:47Z</time>
      </trkpt>
      <trkpt lat="48.65435" lon="7.28242">
        <ele>594</ele>
        <time>2011-05-29T13:37:54Z</time>
      </trkpt>
      <trkpt lat="48.65405" lon="7.28241">
        <ele>594.8</ele>
        <time>2011-05-29T13:38:02Z</time>
      </trkpt>
      <trkpt lat="48.65378" lon="7.28242">
        <ele>594.9</ele>
        <time>2011-05-29T13:38:10Z</time>
      </trkpt>
      <trkpt lat="48.65348" lon="7.28242">
        <ele>594.4</ele>
        <time>2011-05-29T13:38:18Z</time>
      </trkpt>
      <trkpt lat="48.65319" lon="7.28252">
        <ele>594.7</ele>
        <time>2011-05-29T13:38:27Z</time>
      </trkpt>
      <trkpt lat="48.65295" lon="7.28267">
        <ele>594.6</ele>
        <time>2011-05-29T13:38:36Z</time>
      </trkpt>
      <trkpt lat="48.6527" lon="7.28289">
        <ele>595.9</ele>
        <time>2011-05-29T13:38:47Z</time>
      </trkpt>
      <trkpt lat="48.65247" lon="7.28313">
        <ele>597.5</ele>
        <time>2011-05-29T13:38:57Z</time>
      </trkpt>
      <trkpt lat="48.65225" lon="7.28343">
        <ele>598.7</ele>
        <time>2011-05-29T13:39:05Z</time>
      </trkpt>
      <trkpt lat="48.65205" lon="7.28375">
        <ele>600.6</ele>
        <time>2011-05-29T13:39:12Z</time>
      </trkpt>
      <trkpt lat="48.65184" lon="7.28402">
        <ele>601.9</ele>
        <time>2011-05-29T13:39:18Z</time>
      </trkpt>
      <trkpt lat="48.65161" lon="7.28426">
        <ele>603.1</ele>
        <time>2011-05-29T13:39:24Z</time>
      </trkpt>
      <trkpt lat="48.65133" lon="7.28443">
        <ele>603.9</ele>
        <time>2011-05-29T13:39:30Z</time>
      </trkpt>
      <trkpt lat="48.65107" lon="7.28467">
        <ele>606</ele>
        <time>2011-05-29T13:39:37Z</time>
      </trkpt>
      <trkpt lat="48.65083" lon="7.28495">
        <ele>609.1</ele>
        <time>2011-05-29T13:39:46Z</time>
      </trkpt>
      <trkpt lat="48.65059" lon="7.28516">
        <ele>612.6</ele>
        <time>2011-05-29T13:39:57Z</time>
      </trkpt>
      <trkpt lat="48.65036" lon="7.28544">
        <ele>617.7</ele>
        <time>2011-05-29T13:40:07Z</time>
      </trkpt>
      <trkpt lat="48.65017" lon="7.28573">
        <ele>622.4</ele>
        <time>2011-05-29T13:40:17Z</time>
      </trkpt>
      <trkpt lat="48.64993" lon="7.28598">
        <ele>626</ele>
        <time>2011-05-29T13:40:25Z</time>
      </trkpt>
      <trkpt lat="48.64967" lon="7.28609">
        <ele>628.8</ele>
        <time>2011-05-29T13:40:32Z</time>
      </trkpt>
      <trkpt lat="48.64938" lon="7.28606">
        <ele>629.1</ele>
        <time>2011-05-29T13:40:39Z</time>
      </trkpt>
      <trkpt lat="48.64911" lon="7.28601">
        <ele>629.7</ele>
        <time>2011-05-29T13:40:46Z</time>
      </trkpt>
      <trkpt lat="48.64885" lon="7.28587">
        <ele>632.2</ele>
        <time>2011-05-29T13:40:54Z</time>
      </trkpt>
      <trkpt lat="48.64859" lon="7.28569">
        <ele>634.9</ele>
        <time>2011-05-29T13:41:01Z</time>
      </trkpt>
      <trkpt lat="48.64838" lon="7.2854">
        <ele>636.1</ele>
        <time>2011-05-29T13:41:09Z</time>
      </trkpt>
      <trkpt lat="48.64827" lon="7.285">
        <ele>634.8</ele>
        <time>2011-05-29T13:41:19Z</time>
      </trkpt>
      <trkpt lat="48.64821" lon="7.28459">
        <ele>634.1</ele>
        <time>2011-05-29T13:41:27Z</time>
      </trkpt>
      <trkpt lat="48.64816" lon="7.28415">
        <ele>632.9</ele>
        <time>2011-05-29T13:41:36Z</time>
      </trkpt>
      <trkpt lat="48.64807" lon="7.28376">
        <ele>635.1</ele>
        <time>2011-05-29T13:41:46Z</time>
      </trkpt>
      <trkpt lat="48.64795" lon="7.28339">
        <ele>637.1</ele>
        <time>2011-05-29T13:41:57Z</time>
      </trkpt>
      <trkpt lat="48.64781" lon="7.28298">
        <ele>636.6</ele>
        <time>2011-05-29T13:42:09Z</time>
      </trkpt>
      <trkpt lat="48.64767" lon="7.28262">
        <ele>634.9</ele>
        <time>2011-05-29T13:42:18Z</time>
      </trkpt>
      <trkpt lat="48.64751" lon="7.28226">
        <ele>632.6</ele>
        <time>2011-05-29T13:42:27Z</time>
      </trkpt>
      <trkpt lat="48.64729" lon="7.282">
        <ele>632.5</ele>
        <time>2011-05-29T13:42:35Z</time>
      </trkpt>
      <trkpt lat="48.64703" lon="7.28186">
        <ele>633.5</ele>
        <time>2011-05-29T13:42:43Z</time>
      </trkpt>
      <trkpt lat="48.64674" lon="7.28175">
        <ele>634.6</ele>
        <time>2011-05-29T13:42:52Z</time>
      </trkpt>
      <trkpt lat="48.64654" lon="7.28145">
        <ele>636.1</ele>
        <time>2011-05-29T13:43:01Z</time>
      </trkpt>
      <trkpt lat="48.64639" lon="7.28111">
        <ele>637.2</ele>
        <time>2011-05-29T13:43:09Z</time>
      </trkpt>
      <trkpt lat="48.64621" lon="7.28077">
        <ele>639</ele>
        <time>2011-05-29T13:43:18Z</time>
      </trkpt>
      <trkpt lat="48.64615" lon="7.28037">
        <ele>637.1</ele>
        <time>2011-05-29T13:43:28Z</time>
      </trkpt>
      <trkpt lat="48.64611" lon="7.27993">
        <ele>634.2</ele>
        <time>2011-05-29T13:43:35Z</time>
      </trkpt>
      <trkpt lat="48.64611" lon="7.27951">
        <ele>632.2</ele>
        <time>2011-05-29T13:43:41Z</time>
      </trkpt>
      <trkpt lat="48.64611" lon="7.27905">
        <ele>629.9</ele>
        <time>2011-05-29T13:43:47Z</time>
      </trkpt>
      <trkpt lat="48.64608" lon="7.27861">
        <ele>628.6</ele>
        <time>2011-05-29T13:43:52Z</time>
      </trkpt>
      <trkpt lat="48.64607" lon="7.27817">
        <ele>627</ele>
        <time>2011-05-29T13:43:57Z</time>
      </trkpt>
      <trkpt lat="48.64603" lon="7.27768">
        <ele>625</ele>
        <time>2011-05-29T13:44:03Z</time>
      </trkpt>
      <trkpt lat="48.64602" lon="7.27721">
        <ele>624.1</ele>
        <time>2011-05-29T13:44:09Z</time>
      </trkpt>
      <trkpt lat="48.64602" lon="7.27674">
        <ele>623.6</ele>
        <time>2011-05-29T13:44:15Z</time>
      </trkpt>
      <trkpt lat="48.64615" lon="7.27638">
        <ele>620.5</ele>
        <time>2011-05-29T13:44:21Z</time>
      </trkpt>
      <trkpt lat="48.64644" lon="7.27624">
        <ele>616.8</ele>
        <time>2011-05-29T13:44:26Z</time>
      </trkpt>
      <trkpt lat="48.64675" lon="7.27611">
        <ele>613.7</ele>
        <time>2011-05-29T13:44:32Z</time>
      </trkpt>
      <trkpt lat="48.64708" lon="7.27609">
        <ele>611.4</ele>
        <time>2011-05-29T13:44:37Z</time>
      </trkpt>
      <trkpt lat="48.6474" lon="7.27603">
        <ele>609.5</ele>
        <time>2011-05-29T13:44:41Z</time>
      </trkpt>
      <trkpt lat="48.64773" lon="7.27593">
        <ele>608.5</ele>
        <time>2011-05-29T13:44:45Z</time>
      </trkpt>
      <trkpt lat="48.64804" lon="7.27583">
        <ele>608.1</ele>
        <time>2011-05-29T13:44:49Z</time>
      </trkpt>
      <trkpt lat="48.64836" lon="7.27579">
        <ele>607.2</ele>
        <time>2011-05-29T13:44:53Z</time>
      </trkpt>
      <trkpt lat="48.64868" lon="7.27576">
        <ele>606.8</ele>
        <time>2011-05-29T13:44:57Z</time>
      </trkpt>
      <trkpt lat="48.64898" lon="7.27572">
        <ele>606.8</ele>
        <time>2011-05-29T13:45:01Z</time>
      </trkpt>
      <trkpt lat="48.64928" lon="7.27566">
        <ele>606.4</ele>
        <time>2011-05-29T13:45:05Z</time>
      </trkpt>
      <trkpt lat="48.64954" lon="7.27556">
        <ele>605.2</ele>
        <time>2011-05-29T13:45:09Z</time>
      </trkpt>
      <trkpt lat="48.64981" lon="7.27529">
        <ele>605.4</ele>
        <time>2011-05-29T13:45:14Z</time>
      </trkpt>
      <trkpt lat="48.65002" lon="7.27497">
        <ele>605.9</ele>
        <time>2011-05-29T13:45:19Z</time>
      </trkpt>
      <trkpt lat="48.6502" lon="7.27462">
        <ele>605.4</ele>
        <time>2011-05-29T13:45:24Z</time>
      </trkpt>
      <trkpt lat="48.6504" lon="7.2742">
        <ele>604.7</ele>
        <time>2011-05-29T13:45:29Z</time>
      </trkpt>
      <trkpt lat="48.65057" lon="7.27383">
        <ele>600</ele>
        <time>2011-05-29T13:45:33Z</time>
      </trkpt>
      <trkpt lat="48.65075" lon="7.27347">
        <ele>596.3</ele>
        <time>2011-05-29T13:45:37Z</time>
      </trkpt>
      <trkpt lat="48.65096" lon="7.27315">
        <ele>593.3</ele>
        <time>2011-05-29T13:45:41Z</time>
      </trkpt>
      <trkpt lat="48.65121" lon="7.27287">
        <ele>590.4</ele>
        <time>2011-05-29T13:45:45Z</time>
      </trkpt>
      <trkpt lat="48.65147" lon="7.27258">
        <ele>587.8</ele>
        <time>2011-05-29T13:45:49Z</time>
      </trkpt>
      <trkpt lat="48.65172" lon="7.27228">
        <ele>585</ele>
        <time>2011-05-29T13:45:53Z</time>
      </trkpt>
      <trkpt lat="48.65199" lon="7.27198">
        <ele>581.5</ele>
        <time>2011-05-29T13:45:57Z</time>
      </trkpt>
      <trkpt lat="48.6522" lon="7.27173">
        <ele>579.1</ele>
        <time>2011-05-29T13:46:00Z</time>
      </trkpt>
      <trkpt lat="48.65243" lon="7.27147">
        <ele>576.7</ele>
        <time>2011-05-29T13:46:03Z</time>
      </trkpt>
      <trkpt lat="48.65268" lon="7.27118">
        <ele>573.3</ele>
        <time>2011-05-29T13:46:06Z</time>
      </trkpt>
      <trkpt lat="48.65291" lon="7.27091">
        <ele>570</ele>
        <time>2011-05-29T13:46:09Z</time>
      </trkpt>
      <trkpt lat="48.65316" lon="7.27061">
        <ele>567.3</ele>
        <time>2011-05-29T13:46:13Z</time>
      </trkpt>
      <trkpt lat="48.65338" lon="7.27031">
        <ele>565.8</ele>
        <time>2011-05-29T13:46:17Z</time>
      </trkpt>
      <trkpt lat="48.6536" lon="7.27006">
        <ele>564.1</ele>
        <time>2011-05-29T13:46:21Z</time>
      </trkpt>
      <trkpt lat="48.65387" lon="7.26987">
        <ele>561.1</ele>
        <time>2011-05-29T13:46:25Z</time>
      </trkpt>
      <trkpt lat="48.65416" lon="7.26966">
        <ele>557.5</ele>
        <time>2011-05-29T13:46:29Z</time>
      </trkpt>
      <trkpt lat="48.65441" lon="7.26943">
        <ele>555.4</ele>
        <time>2011-05-29T13:46:32Z</time>
      </trkpt>
      <trkpt lat="48.65466" lon="7.26916">
        <ele>553.8</ele>
        <time>2011-05-29T13:46:35Z</time>
      </trkpt>
      <trkpt lat="48.65493" lon="7.26896">
        <ele>551.8</ele>
        <time>2011-05-29T13:46:38Z</time>
      </trkpt>
      <trkpt lat="48.65519" lon="7.26881">
        <ele>550.4</ele>
        <time>2011-05-29T13:46:41Z</time>
      </trkpt>
      <trkpt lat="48.6555" lon="7.26855">
        <ele>548.9</ele>
        <time>2011-05-29T13:46:45Z</time>
      </trkpt>
      <trkpt lat="48.65574" lon="7.26818">
        <ele>547.4</ele>
        <time>2011-05-29T13:46:49Z</time>
      </trkpt>
      <trkpt lat="48.65596" lon="7.26782">
        <ele>545.3</ele>
        <time>2011-05-29T13:46:53Z</time>
      </trkpt>
      <trkpt lat="48.65629" lon="7.26761">
        <ele>541.9</ele>
        <time>2011-05-29T13:46:57Z</time>
      </trkpt>
      <trkpt lat="48.65659" lon="7.26746">
        <ele>538.8</ele>
        <time>2011-05-29T13:47:00Z</time>
      </trkpt>
      <trkpt lat="48.65689" lon="7.26716">
        <ele>535.9</ele>
        <time>2011-05-29T13:47:03Z</time>
      </trkpt>
      <trkpt lat="48.65841" lon="7.26506">
        <ele>516</ele>
        <time>2011-05-29T13:49:39Z</time>
      </trkpt>
      <trkpt lat="48.65863" lon="7.26518">
        <ele>515.9</ele>
        <time>2011-05-29T13:49:51Z</time>
      </trkpt>
      <trkpt lat="48.65888" lon="7.26547">
        <ele>515.1</ele>
        <time>2011-05-29T13:49:59Z</time>
      </trkpt>
      <trkpt lat="48.65909" lon="7.26576">
        <ele>513.6</ele>
        <time>2011-05-29T13:50:06Z</time>
      </trkpt>
      <trkpt lat="48.65924" lon="7.26609">
        <ele>512.1</ele>
        <time>2011-05-29T13:50:12Z</time>
      </trkpt>
      <trkpt lat="48.6594" lon="7.26645">
        <ele>510.5</ele>
        <time>2011-05-29T13:50:19Z</time>
      </trkpt>
      <trkpt lat="48.65958" lon="7.26679">
        <ele>508.3</ele>
        <time>2011-05-29T13:50:26Z</time>
      </trkpt>
      <trkpt lat="48.65982" lon="7.26702">
        <ele>505.8</ele>
        <time>2011-05-29T13:50:33Z</time>
      </trkpt>
      <trkpt lat="48.66007" lon="7.26713">
        <ele>504.4</ele>
        <time>2011-05-29T13:51:04Z</time>
      </trkpt>
      <trkpt lat="48.66037" lon="7.26715">
        <ele>505.5</ele>
        <time>2011-05-29T13:51:12Z</time>
      </trkpt>
      <trkpt lat="48.66066" lon="7.26719">
        <ele>506</ele>
        <time>2011-05-29T13:51:19Z</time>
      </trkpt>
      <trkpt lat="48.66093" lon="7.26721">
        <ele>507.3</ele>
        <time>2011-05-29T13:51:27Z</time>
      </trkpt>
      <trkpt lat="48.66121" lon="7.26714">
        <ele>511.8</ele>
        <time>2011-05-29T13:51:37Z</time>
      </trkpt>
      <trkpt lat="48.66149" lon="7.26717">
        <ele>514.3</ele>
        <time>2011-05-29T13:51:47Z</time>
      </trkpt>
      <trkpt lat="48.66179" lon="7.26722">
        <ele>515.9</ele>
        <time>2011-05-29T13:51:56Z</time>
      </trkpt>
      <trkpt lat="48.66206" lon="7.26724">
        <ele>517.3</ele>
        <time>2011-05-29T13:52:03Z</time>
      </trkpt>
      <trkpt lat="48.66236" lon="7.26719">
        <ele>520.5</ele>
        <time>2011-05-29T13:52:10Z</time>
      </trkpt>
      <trkpt lat="48.66266" lon="7.26718">
        <ele>521</ele>
        <time>2011-05-29T13:52:16Z</time>
      </trkpt>
      <trkpt lat="48.66294" lon="7.26722">
        <ele>518.7</ele>
        <time>2011-05-29T13:52:21Z</time>
      </trkpt>
      <trkpt lat="48.66321" lon="7.26718">
        <ele>518.4</ele>
        <time>2011-05-29T13:52:26Z</time>
      </trkpt>
      <trkpt lat="48.66351" lon="7.26712">
        <ele>518.5</ele>
        <time>2011-05-29T13:52:32Z</time>
      </trkpt>
      <trkpt lat="48.66383" lon="7.26701">
        <ele>519.3</ele>
        <time>2011-05-29T13:52:38Z</time>
      </trkpt>
      <trkpt lat="48.66411" lon="7.26694">
        <ele>519</ele>
        <time>2011-05-29T13:52:43Z</time>
      </trkpt>
      <trkpt lat="48.66444" lon="7.26693">
        <ele>517.1</ele>
        <time>2011-05-29T13:52:48Z</time>
      </trkpt>
      <trkpt lat="48.66471" lon="7.26695">
        <ele>514.9</ele>
        <time>2011-05-29T13:52:52Z</time>
      </trkpt>
      <trkpt lat="48.66499" lon="7.26694">
        <ele>513.1</ele>
        <time>2011-05-29T13:52:56Z</time>
      </trkpt>
      <trkpt lat="48.66528" lon="7.26694">
        <ele>507.2</ele>
        <time>2011-05-29T13:53:00Z</time>
      </trkpt>
      <trkpt lat="48.66557" lon="7.26687">
        <ele>503.1</ele>
        <time>2011-05-29T13:53:04Z</time>
      </trkpt>
      <trkpt lat="48.66589" lon="7.26677">
        <ele>498.9</ele>
        <time>2011-05-29T13:53:08Z</time>
      </trkpt>
      <trkpt lat="48.66623" lon="7.26662">
        <ele>492.8</ele>
        <time>2011-05-29T13:53:12Z</time>
      </trkpt>
      <trkpt lat="48.6665" lon="7.26645">
        <ele>490.4</ele>
        <time>2011-05-29T13:53:15Z</time>
      </trkpt>
      <trkpt lat="48.66678" lon="7.2663">
        <ele>489.1</ele>
        <time>2011-05-29T13:53:18Z</time>
      </trkpt>
      <trkpt lat="48.66705" lon="7.26621">
        <ele>489.1</ele>
        <time>2011-05-29T13:53:21Z</time>
      </trkpt>
      <trkpt lat="48.66741" lon="7.26628">
        <ele>483.3</ele>
        <time>2011-05-29T13:53:25Z</time>
      </trkpt>
      <trkpt lat="48.66769" lon="7.2664">
        <ele>480.7</ele>
        <time>2011-05-29T13:53:28Z</time>
      </trkpt>
      <trkpt lat="48.668" lon="7.26653">
        <ele>480.7</ele>
        <time>2011-05-29T13:53:32Z</time>
      </trkpt>
      <trkpt lat="48.66832" lon="7.26658">
        <ele>483.2</ele>
        <time>2011-05-29T13:53:37Z</time>
      </trkpt>
      <trkpt lat="48.66859" lon="7.26651">
        <ele>484.2</ele>
        <time>2011-05-29T13:53:42Z</time>
      </trkpt>
      <trkpt lat="48.66886" lon="7.26638">
        <ele>485.3</ele>
        <time>2011-05-29T13:53:47Z</time>
      </trkpt>
      <trkpt lat="48.66911" lon="7.2662">
        <ele>486</ele>
        <time>2011-05-29T13:53:52Z</time>
      </trkpt>
      <trkpt lat="48.66937" lon="7.26608">
        <ele>484.2</ele>
        <time>2011-05-29T13:53:56Z</time>
      </trkpt>
      <trkpt lat="48.66964" lon="7.26597">
        <ele>482.9</ele>
        <time>2011-05-29T13:54:00Z</time>
      </trkpt>
      <trkpt lat="48.66992" lon="7.26592">
        <ele>481.5</ele>
        <time>2011-05-29T13:54:04Z</time>
      </trkpt>
      <trkpt lat="48.67019" lon="7.26611">
        <ele>481.6</ele>
        <time>2011-05-29T13:54:09Z</time>
      </trkpt>
      <trkpt lat="48.67036" lon="7.26646">
        <ele>479</ele>
        <time>2011-05-29T13:54:14Z</time>
      </trkpt>
      <trkpt lat="48.67057" lon="7.26678">
        <ele>479</ele>
        <time>2011-05-29T13:54:19Z</time>
      </trkpt>
      <trkpt lat="48.67078" lon="7.2671">
        <ele>477.2</ele>
        <time>2011-05-29T13:54:25Z</time>
      </trkpt>
      <trkpt lat="48.67101" lon="7.26735">
        <ele>475.9</ele>
        <time>2011-05-29T13:54:31Z</time>
      </trkpt>
      <trkpt lat="48.67127" lon="7.26747">
        <ele>477.8</ele>
        <time>2011-05-29T13:54:37Z</time>
      </trkpt>
      <trkpt lat="48.67157" lon="7.26751">
        <ele>482.5</ele>
        <time>2011-05-29T13:54:43Z</time>
      </trkpt>
      <trkpt lat="48.67184" lon="7.2676">
        <ele>481.9</ele>
        <time>2011-05-29T13:54:48Z</time>
      </trkpt>
      <trkpt lat="48.67214" lon="7.26766">
        <ele>480.3</ele>
        <time>2011-05-29T13:54:54Z</time>
      </trkpt>
      <trkpt lat="48.67245" lon="7.26772">
        <ele>479.4</ele>
        <time>2011-05-29T13:55:00Z</time>
      </trkpt>
      <trkpt lat="48.67276" lon="7.26769">
        <ele>480.1</ele>
        <time>2011-05-29T13:55:06Z</time>
      </trkpt>
      <trkpt lat="48.67307" lon="7.26766">
        <ele>480.9</ele>
        <time>2011-05-29T13:55:13Z</time>
      </trkpt>
      <trkpt lat="48.67335" lon="7.26765">
        <ele>481</ele>
        <time>2011-05-29T13:55:21Z</time>
      </trkpt>
      <trkpt lat="48.67366" lon="7.26767">
        <ele>480.1</ele>
        <time>2011-05-29T13:55:31Z</time>
      </trkpt>
      <trkpt lat="48.67392" lon="7.2675">
        <ele>485.3</ele>
        <time>2011-05-29T13:55:38Z</time>
      </trkpt>
      <trkpt lat="48.67417" lon="7.26729">
        <ele>491.7</ele>
        <time>2011-05-29T13:55:47Z</time>
      </trkpt>
      <trkpt lat="48.67444" lon="7.2671">
        <ele>496.8</ele>
        <time>2011-05-29T13:55:59Z</time>
      </trkpt>
      <trkpt lat="48.67471" lon="7.26697">
        <ele>500.2</ele>
        <time>2011-05-29T13:56:07Z</time>
      </trkpt>
      <trkpt lat="48.675" lon="7.26693">
        <ele>500.6</ele>
        <time>2011-05-29T13:56:18Z</time>
      </trkpt>
      <trkpt lat="48.67528" lon="7.26691">
        <ele>500.2</ele>
        <time>2011-05-29T13:56:26Z</time>
      </trkpt>
      <trkpt lat="48.67554" lon="7.26689">
        <ele>500</ele>
        <time>2011-05-29T13:56:35Z</time>
      </trkpt>
      <trkpt lat="48.67584" lon="7.26685">
        <ele>500.1</ele>
        <time>2011-05-29T13:56:47Z</time>
      </trkpt>
      <trkpt lat="48.6761" lon="7.26694">
        <ele>494.5</ele>
        <time>2011-05-29T13:56:59Z</time>
      </trkpt>
      <trkpt lat="48.67635" lon="7.26686">
        <ele>493.3</ele>
        <time>2011-05-29T13:57:10Z</time>
      </trkpt>
      <trkpt lat="48.67661" lon="7.26675">
        <ele>492.8</ele>
        <time>2011-05-29T13:57:20Z</time>
      </trkpt>
      <trkpt lat="48.67687" lon="7.2666">
        <ele>492.1</ele>
        <time>2011-05-29T13:57:33Z</time>
      </trkpt>
      <trkpt lat="48.67693" lon="7.2662">
        <ele>492.5</ele>
        <time>2011-05-29T13:57:48Z</time>
      </trkpt>
      <trkpt lat="48.67685" lon="7.26577">
        <ele>494.3</ele>
        <time>2011-05-29T13:57:59Z</time>
      </trkpt>
      <trkpt lat="48.67673" lon="7.26537">
        <ele>491.9</ele>
        <time>2011-05-29T13:58:09Z</time>
      </trkpt>
      <trkpt lat="48.67653" lon="7.26502">
        <ele>492.7</ele>
        <time>2011-05-29T13:58:17Z</time>
      </trkpt>
      <trkpt lat="48.67634" lon="7.26473">
        <ele>493.7</ele>
        <time>2011-05-29T13:58:23Z</time>
      </trkpt>
      <trkpt lat="48.67613" lon="7.26434">
        <ele>493.6</ele>
        <time>2011-05-29T13:58:28Z</time>
      </trkpt>
      <trkpt lat="48.67593" lon="7.264">
        <ele>493.7</ele>
        <time>2011-05-29T13:58:32Z</time>
      </trkpt>
      <trkpt lat="48.67577" lon="7.2636">
        <ele>492.8</ele>
        <time>2011-05-29T13:58:36Z</time>
      </trkpt>
      <trkpt lat="48.67561" lon="7.26319">
        <ele>492</ele>
        <time>2011-05-29T13:58:40Z</time>
      </trkpt>
      <trkpt lat="48.6755" lon="7.26267">
        <ele>488.2</ele>
        <time>2011-05-29T13:58:44Z</time>
      </trkpt>
      <trkpt lat="48.6755" lon="7.26219">
        <ele>483.6</ele>
        <time>2011-05-29T13:58:47Z</time>
      </trkpt>
      <trkpt lat="48.67551" lon="7.26163">
        <ele>478.7</ele>
        <time>2011-05-29T13:58:50Z</time>
      </trkpt>
      <trkpt lat="48.67557" lon="7.26112">
        <ele>473</ele>
        <time>2011-05-29T13:58:53Z</time>
      </trkpt>
      <trkpt lat="48.6756" lon="7.26063">
        <ele>470.2</ele>
        <time>2011-05-29T13:58:56Z</time>
      </trkpt>
      <trkpt lat="48.67561" lon="7.26016">
        <ele>471.2</ele>
        <time>2011-05-29T13:59:00Z</time>
      </trkpt>
      <trkpt lat="48.6756" lon="7.25973">
        <ele>471.2</ele>
        <time>2011-05-29T13:59:06Z</time>
      </trkpt>
      <trkpt lat="48.67559" lon="7.25929">
        <ele>470</ele>
        <time>2011-05-29T13:59:13Z</time>
      </trkpt>
      <trkpt lat="48.67566" lon="7.25885">
        <ele>467</ele>
        <time>2011-05-29T13:59:19Z</time>
      </trkpt>
      <trkpt lat="48.67592" lon="7.25869">
        <ele>464.1</ele>
        <time>2011-05-29T13:59:25Z</time>
      </trkpt>
      <trkpt lat="48.67621" lon="7.2587">
        <ele>464.9</ele>
        <time>2011-05-29T13:59:31Z</time>
      </trkpt>
      <trkpt lat="48.67634" lon="7.25906">
        <ele>467</ele>
        <time>2011-05-29T13:59:48Z</time>
      </trkpt>
      <trkpt lat="48.67642" lon="7.25946">
        <ele>467.6</ele>
        <time>2011-05-29T14:00:05Z</time>
      </trkpt>
      <trkpt lat="48.67663" lon="7.25976">
        <ele>468.1</ele>
        <time>2011-05-29T14:00:24Z</time>
      </trkpt>
      <trkpt lat="48.67688" lon="7.2597">
        <ele>472.6</ele>
        <time>2011-05-29T14:00:45Z</time>
      </trkpt>
      <trkpt lat="48.67703" lon="7.25933">
        <ele>475.9</ele>
        <time>2011-05-29T14:00:57Z</time>
      </trkpt>
      <trkpt lat="48.67726" lon="7.25903">
        <ele>478.9</ele>
        <time>2011-05-29T14:01:05Z</time>
      </trkpt>
      <trkpt lat="48.6775" lon="7.25876">
        <ele>479.6</ele>
        <time>2011-05-29T14:01:14Z</time>
      </trkpt>
      <trkpt lat="48.67773" lon="7.25854">
        <ele>478.9</ele>
        <time>2011-05-29T14:01:21Z</time>
      </trkpt>
      <trkpt lat="48.67801" lon="7.25837">
        <ele>479.4</ele>
        <time>2011-05-29T14:01:30Z</time>
      </trkpt>
      <trkpt lat="48.6783" lon="7.2583">
        <ele>480.8</ele>
        <time>2011-05-29T14:01:37Z</time>
      </trkpt>
      <trkpt lat="48.67859" lon="7.25822">
        <ele>479.8</ele>
        <time>2011-05-29T14:01:42Z</time>
      </trkpt>
      <trkpt lat="48.67888" lon="7.2582">
        <ele>479.8</ele>
        <time>2011-05-29T14:01:47Z</time>
      </trkpt>
      <trkpt lat="48.67916" lon="7.25814">
        <ele>478.8</ele>
        <time>2011-05-29T14:01:52Z</time>
      </trkpt>
      <trkpt lat="48.67944" lon="7.25808">
        <ele>474.5</ele>
        <time>2011-05-29T14:01:56Z</time>
      </trkpt>
      <trkpt lat="48.67974" lon="7.25808">
        <ele>471</ele>
        <time>2011-05-29T14:02:00Z</time>
      </trkpt>
      <trkpt lat="48.68004" lon="7.25804">
        <ele>467.9</ele>
        <time>2011-05-29T14:02:05Z</time>
      </trkpt>
      <trkpt lat="48.68034" lon="7.25796">
        <ele>467.8</ele>
        <time>2011-05-29T14:02:10Z</time>
      </trkpt>
      <trkpt lat="48.68062" lon="7.25779">
        <ele>469.1</ele>
        <time>2011-05-29T14:02:18Z</time>
      </trkpt>
      <trkpt lat="48.68089" lon="7.25777">
        <ele>470.8</ele>
        <time>2011-05-29T14:02:24Z</time>
      </trkpt>
      <trkpt lat="48.68117" lon="7.25767">
        <ele>475.8</ele>
        <time>2011-05-29T14:02:35Z</time>
      </trkpt>
      <trkpt lat="48.68144" lon="7.2576">
        <ele>480.9</ele>
        <time>2011-05-29T14:02:51Z</time>
      </trkpt>
      <trkpt lat="48.68172" lon="7.2575">
        <ele>487</ele>
        <time>2011-05-29T14:03:08Z</time>
      </trkpt>
      <trkpt lat="48.68193" lon="7.25726">
        <ele>489.5</ele>
        <time>2011-05-29T14:03:30Z</time>
      </trkpt>
      <trkpt lat="48.68218" lon="7.25712">
        <ele>491.9</ele>
        <time>2011-05-29T14:03:52Z</time>
      </trkpt>
      <trkpt lat="48.68236" lon="7.25682">
        <ele>496.8</ele>
        <time>2011-05-29T14:05:12Z</time>
      </trkpt>
      <trkpt lat="48.68261" lon="7.25665">
        <ele>499.4</ele>
        <time>2011-05-29T14:05:30Z</time>
      </trkpt>
      <trkpt lat="48.68287" lon="7.25653">
        <ele>498.2</ele>
        <time>2011-05-29T14:05:57Z</time>
      </trkpt>
      <trkpt lat="48.68312" lon="7.25632">
        <ele>497.8</ele>
        <time>2011-05-29T14:06:08Z</time>
      </trkpt>
      <trkpt lat="48.68335" lon="7.25608">
        <ele>498.7</ele>
        <time>2011-05-29T14:06:17Z</time>
      </trkpt>
      <trkpt lat="48.68356" lon="7.25578">
        <ele>498.4</ele>
        <time>2011-05-29T14:06:24Z</time>
      </trkpt>
      <trkpt lat="48.68375" lon="7.25546">
        <ele>495.7</ele>
        <time>2011-05-29T14:06:31Z</time>
      </trkpt>
      <trkpt lat="48.68406" lon="7.25534">
        <ele>495.3</ele>
        <time>2011-05-29T14:06:38Z</time>
      </trkpt>
      <trkpt lat="48.68433" lon="7.25524">
        <ele>494.5</ele>
        <time>2011-05-29T14:06:43Z</time>
      </trkpt>
      <trkpt lat="48.68463" lon="7.25512">
        <ele>493.5</ele>
        <time>2011-05-29T14:06:48Z</time>
      </trkpt>
      <trkpt lat="48.6849" lon="7.25503">
        <ele>493</ele>
        <time>2011-05-29T14:06:53Z</time>
      </trkpt>
      <trkpt lat="48.68515" lon="7.25488">
        <ele>492.5</ele>
        <time>2011-05-29T14:06:58Z</time>
      </trkpt>
      <trkpt lat="48.68544" lon="7.25493">
        <ele>491.9</ele>
        <time>2011-05-29T14:07:05Z</time>
      </trkpt>
      <trkpt lat="48.6857" lon="7.25507">
        <ele>490.6</ele>
        <time>2011-05-29T14:07:11Z</time>
      </trkpt>
      <trkpt lat="48.68596" lon="7.2552">
        <ele>487.6</ele>
        <time>2011-05-29T14:07:16Z</time>
      </trkpt>
      <trkpt lat="48.68626" lon="7.25525">
        <ele>484.8</ele>
        <time>2011-05-29T14:07:21Z</time>
      </trkpt>
      <trkpt lat="48.68657" lon="7.2552">
        <ele>482.8</ele>
        <time>2011-05-29T14:07:27Z</time>
      </trkpt>
      <trkpt lat="48.68686" lon="7.25522">
        <ele>481.4</ele>
        <time>2011-05-29T14:07:33Z</time>
      </trkpt>
      <trkpt lat="48.68713" lon="7.25531">
        <ele>480.5</ele>
        <time>2011-05-29T14:07:41Z</time>
      </trkpt>
      <trkpt lat="48.68744" lon="7.25541">
        <ele>480.1</ele>
        <time>2011-05-29T14:07:48Z</time>
      </trkpt>
      <trkpt lat="48.68775" lon="7.25546">
        <ele>479.3</ele>
        <time>2011-05-29T14:07:56Z</time>
      </trkpt>
      <trkpt lat="48.68802" lon="7.25551">
        <ele>478.6</ele>
        <time>2011-05-29T14:08:02Z</time>
      </trkpt>
      <trkpt lat="48.68832" lon="7.25561">
        <ele>478.4</ele>
        <time>2011-05-29T14:08:09Z</time>
      </trkpt>
      <trkpt lat="48.6886" lon="7.25558">
        <ele>478.7</ele>
        <time>2011-05-29T14:08:16Z</time>
      </trkpt>
      <trkpt lat="48.68885" lon="7.25573">
        <ele>479.6</ele>
        <time>2011-05-29T14:08:22Z</time>
      </trkpt>
      <trkpt lat="48.68904" lon="7.25605">
        <ele>478.6</ele>
        <time>2011-05-29T14:08:28Z</time>
      </trkpt>
      <trkpt lat="48.68926" lon="7.25639">
        <ele>478.1</ele>
        <time>2011-05-29T14:08:34Z</time>
      </trkpt>
      <trkpt lat="48.68947" lon="7.25667">
        <ele>479.3</ele>
        <time>2011-05-29T14:08:40Z</time>
      </trkpt>
      <trkpt lat="48.68971" lon="7.25687">
        <ele>478.6</ele>
        <time>2011-05-29T14:08:45Z</time>
      </trkpt>
      <trkpt lat="48.68997" lon="7.25712">
        <ele>476.8</ele>
        <time>2011-05-29T14:08:51Z</time>
      </trkpt>
      <trkpt lat="48.69022" lon="7.25736">
        <ele>475.8</ele>
        <time>2011-05-29T14:08:57Z</time>
      </trkpt>
      <trkpt lat="48.69044" lon="7.2576">
        <ele>475.4</ele>
        <time>2011-05-29T14:09:04Z</time>
      </trkpt>
      <trkpt lat="48.69071" lon="7.25776">
        <ele>477.6</ele>
        <time>2011-05-29T14:09:10Z</time>
      </trkpt>
      <trkpt lat="48.69102" lon="7.25782">
        <ele>480.6</ele>
        <time>2011-05-29T14:09:15Z</time>
      </trkpt>
      <trkpt lat="48.69132" lon="7.25785">
        <ele>482.6</ele>
        <time>2011-05-29T14:09:20Z</time>
      </trkpt>
      <trkpt lat="48.69158" lon="7.25796">
        <ele>483.9</ele>
        <time>2011-05-29T14:09:25Z</time>
      </trkpt>
      <trkpt lat="48.69185" lon="7.25813">
        <ele>485</ele>
        <time>2011-05-29T14:09:32Z</time>
      </trkpt>
      <trkpt lat="48.69206" lon="7.25839">
        <ele>485</ele>
        <time>2011-05-29T14:09:38Z</time>
      </trkpt>
      <trkpt lat="48.69229" lon="7.25866">
        <ele>484.4</ele>
        <time>2011-05-29T14:09:45Z</time>
      </trkpt>
      <trkpt lat="48.69254" lon="7.25887">
        <ele>486.6</ele>
        <time>2011-05-29T14:09:52Z</time>
      </trkpt>
      <trkpt lat="48.69279" lon="7.25907">
        <ele>487.6</ele>
        <time>2011-05-29T14:10:28Z</time>
      </trkpt>
      <trkpt lat="48.69304" lon="7.25933">
        <ele>488.8</ele>
        <time>2011-05-29T14:10:41Z</time>
      </trkpt>
      <trkpt lat="48.69327" lon="7.25953">
        <ele>491.5</ele>
        <time>2011-05-29T14:10:51Z</time>
      </trkpt>
      <trkpt lat="48.69354" lon="7.25964">
        <ele>492.5</ele>
        <time>2011-05-29T14:10:59Z</time>
      </trkpt>
      <trkpt lat="48.69383" lon="7.2597">
        <ele>492.4</ele>
        <time>2011-05-29T14:11:08Z</time>
      </trkpt>
      <trkpt lat="48.69412" lon="7.25956">
        <ele>492</ele>
        <time>2011-05-29T14:11:21Z</time>
      </trkpt>
      <trkpt lat="48.69439" lon="7.25942">
        <ele>489.8</ele>
        <time>2011-05-29T14:11:30Z</time>
      </trkpt>
      <trkpt lat="48.69469" lon="7.2594">
        <ele>487.3</ele>
        <time>2011-05-29T14:11:37Z</time>
      </trkpt>
      <trkpt lat="48.69497" lon="7.25941">
        <ele>484.9</ele>
        <time>2011-05-29T14:11:43Z</time>
      </trkpt>
      <trkpt lat="48.69527" lon="7.25941">
        <ele>484.5</ele>
        <time>2011-05-29T14:11:48Z</time>
      </trkpt>
      <trkpt lat="48.69556" lon="7.25945">
        <ele>484.2</ele>
        <time>2011-05-29T14:11:54Z</time>
      </trkpt>
      <trkpt lat="48.69581" lon="7.25968">
        <ele>484</ele>
        <time>2011-05-29T14:12:03Z</time>
      </trkpt>
      <trkpt lat="48.69606" lon="7.25986">
        <ele>485.7</ele>
        <time>2011-05-29T14:12:09Z</time>
      </trkpt>
      <trkpt lat="48.69627" lon="7.26015">
        <ele>485.9</ele>
        <time>2011-05-29T14:12:15Z</time>
      </trkpt>
      <trkpt lat="48.6965" lon="7.26039">
        <ele>485.5</ele>
        <time>2011-05-29T14:12:23Z</time>
      </trkpt>
      <trkpt lat="48.69674" lon="7.2607">
        <ele>485.5</ele>
        <time>2011-05-29T14:12:30Z</time>
      </trkpt>
      <trkpt lat="48.69693" lon="7.26099">
        <ele>487</ele>
        <time>2011-05-29T14:12:36Z</time>
      </trkpt>
      <trkpt lat="48.69713" lon="7.26133">
        <ele>489.2</ele>
        <time>2011-05-29T14:12:43Z</time>
      </trkpt>
      <trkpt lat="48.69731" lon="7.2617">
        <ele>491.8</ele>
        <time>2011-05-29T14:12:50Z</time>
      </trkpt>
      <trkpt lat="48.69746" lon="7.26208">
        <ele>493.2</ele>
        <time>2011-05-29T14:12:57Z</time>
      </trkpt>
      <trkpt lat="48.69767" lon="7.26244">
        <ele>493.1</ele>
        <time>2011-05-29T14:13:03Z</time>
      </trkpt>
      <trkpt lat="48.6978" lon="7.26282">
        <ele>490.2</ele>
        <time>2011-05-29T14:13:09Z</time>
      </trkpt>
      <trkpt lat="48.69795" lon="7.26324">
        <ele>488</ele>
        <time>2011-05-29T14:13:14Z</time>
      </trkpt>
      <trkpt lat="48.69803" lon="7.26365">
        <ele>486.9</ele>
        <time>2011-05-29T14:13:18Z</time>
      </trkpt>
      <trkpt lat="48.69815" lon="7.26404">
        <ele>487.1</ele>
        <time>2011-05-29T14:13:23Z</time>
      </trkpt>
      <trkpt lat="48.69841" lon="7.26434">
        <ele>488.5</ele>
        <time>2011-05-29T14:13:29Z</time>
      </trkpt>
      <trkpt lat="48.69869" lon="7.26452">
        <ele>486.6</ele>
        <time>2011-05-29T14:13:33Z</time>
      </trkpt>
      <trkpt lat="48.69902" lon="7.26464">
        <ele>485.2</ele>
        <time>2011-05-29T14:13:39Z</time>
      </trkpt>
      <trkpt lat="48.69934" lon="7.26474">
        <ele>481.4</ele>
        <time>2011-05-29T14:13:44Z</time>
      </trkpt>
      <trkpt lat="48.69963" lon="7.26471">
        <ele>477</ele>
        <time>2011-05-29T14:13:49Z</time>
      </trkpt>
      <trkpt lat="48.69991" lon="7.26463">
        <ele>472.5</ele>
        <time>2011-05-29T14:14:17Z</time>
      </trkpt>
      <trkpt lat="48.7002" lon="7.2647">
        <ele>468.9</ele>
        <time>2011-05-29T14:14:23Z</time>
      </trkpt>
      <trkpt lat="48.70046" lon="7.26479">
        <ele>466.1</ele>
        <time>2011-05-29T14:14:28Z</time>
      </trkpt>
      <trkpt lat="48.70077" lon="7.26495">
        <ele>463.4</ele>
        <time>2011-05-29T14:14:34Z</time>
      </trkpt>
      <trkpt lat="48.70103" lon="7.26514">
        <ele>462.7</ele>
        <time>2011-05-29T14:14:40Z</time>
      </trkpt>
      <trkpt lat="48.70123" lon="7.26545">
        <ele>462.9</ele>
        <time>2011-05-29T14:14:48Z</time>
      </trkpt>
      <trkpt lat="48.70149" lon="7.26557">
        <ele>464.2</ele>
        <time>2011-05-29T14:14:53Z</time>
      </trkpt>
      <trkpt lat="48.70176" lon="7.26566">
        <ele>465.7</ele>
        <time>2011-05-29T14:15:02Z</time>
      </trkpt>
      <trkpt lat="48.70206" lon="7.26554">
        <ele>466.2</ele>
        <time>2011-05-29T14:15:08Z</time>
      </trkpt>
      <trkpt lat="48.70237" lon="7.2654">
        <ele>466.1</ele>
        <time>2011-05-29T14:15:15Z</time>
      </trkpt>
      <trkpt lat="48.70266" lon="7.26534">
        <ele>465.9</ele>
        <time>2011-05-29T14:15:21Z</time>
      </trkpt>
      <trkpt lat="48.70296" lon="7.26518">
        <ele>464.7</ele>
        <time>2011-05-29T14:15:28Z</time>
      </trkpt>
      <trkpt lat="48.70323" lon="7.26517">
        <ele>464.6</ele>
        <time>2011-05-29T14:15:39Z</time>
      </trkpt>
      <trkpt lat="48.70353" lon="7.26517">
        <ele>465.9</ele>
        <time>2011-05-29T14:15:52Z</time>
      </trkpt>
      <trkpt lat="48.70382" lon="7.26516">
        <ele>467.6</ele>
        <time>2011-05-29T14:16:03Z</time>
      </trkpt>
      <trkpt lat="48.70409" lon="7.26508">
        <ele>468.9</ele>
        <time>2011-05-29T14:16:15Z</time>
      </trkpt>
      <trkpt lat="48.70436" lon="7.26495">
        <ele>469.3</ele>
        <time>2011-05-29T14:16:24Z</time>
      </trkpt>
      <trkpt lat="48.70462" lon="7.26486">
        <ele>469.5</ele>
        <time>2011-05-29T14:16:32Z</time>
      </trkpt>
      <trkpt lat="48.70494" lon="7.26485">
        <ele>470.5</ele>
        <time>2011-05-29T14:16:39Z</time>
      </trkpt>
      <trkpt lat="48.70523" lon="7.26475">
        <ele>468.4</ele>
        <time>2011-05-29T14:16:45Z</time>
      </trkpt>
      <trkpt lat="48.70549" lon="7.26468">
        <ele>465.8</ele>
        <time>2011-05-29T14:16:50Z</time>
      </trkpt>
      <trkpt lat="48.70581" lon="7.26473">
        <ele>464.3</ele>
        <time>2011-05-29T14:16:55Z</time>
      </trkpt>
      <trkpt lat="48.70612" lon="7.26474">
        <ele>462.6</ele>
        <time>2011-05-29T14:16:59Z</time>
      </trkpt>
      <trkpt lat="48.70641" lon="7.26472">
        <ele>460.7</ele>
        <time>2011-05-29T14:17:03Z</time>
      </trkpt>
      <trkpt lat="48.70673" lon="7.26478">
        <ele>460</ele>
        <time>2011-05-29T14:17:08Z</time>
      </trkpt>
      <trkpt lat="48.70704" lon="7.26481">
        <ele>459.7</ele>
        <time>2011-05-29T14:17:13Z</time>
      </trkpt>
      <trkpt lat="48.70739" lon="7.26483">
        <ele>459.2</ele>
        <time>2011-05-29T14:17:18Z</time>
      </trkpt>
      <trkpt lat="48.7077" lon="7.26494">
        <ele>459.9</ele>
        <time>2011-05-29T14:17:23Z</time>
      </trkpt>
      <trkpt lat="48.70799" lon="7.26488">
        <ele>458.4</ele>
        <time>2011-05-29T14:17:27Z</time>
      </trkpt>
      <trkpt lat="48.70831" lon="7.26479">
        <ele>456.7</ele>
        <time>2011-05-29T14:17:32Z</time>
      </trkpt>
      <trkpt lat="48.70863" lon="7.26475">
        <ele>455.1</ele>
        <time>2011-05-29T14:17:36Z</time>
      </trkpt>
      <trkpt lat="48.70891" lon="7.26477">
        <ele>454.2</ele>
        <time>2011-05-29T14:17:40Z</time>
      </trkpt>
      <trkpt lat="48.70919" lon="7.26494">
        <ele>454.3</ele>
        <time>2011-05-29T14:17:46Z</time>
      </trkpt>
      <trkpt lat="48.70945" lon="7.26522">
        <ele>453.1</ele>
        <time>2011-05-29T14:17:52Z</time>
      </trkpt>
      <trkpt lat="48.70971" lon="7.26539">
        <ele>450.9</ele>
        <time>2011-05-29T14:17:57Z</time>
      </trkpt>
      <trkpt lat="48.71" lon="7.26551">
        <ele>448</ele>
        <time>2011-05-29T14:18:00Z</time>
      </trkpt>
      <trkpt lat="48.71027" lon="7.26559">
        <ele>447.1</ele>
        <time>2011-05-29T14:18:03Z</time>
      </trkpt>
      <trkpt lat="48.71053" lon="7.26577">
        <ele>446.2</ele>
        <time>2011-05-29T14:18:09Z</time>
      </trkpt>
      <trkpt lat="48.71075" lon="7.26608">
        <ele>445.3</ele>
        <time>2011-05-29T14:18:17Z</time>
      </trkpt>
      <trkpt lat="48.71085" lon="7.26647">
        <ele>445.1</ele>
        <time>2011-05-29T14:18:23Z</time>
      </trkpt>
      <trkpt lat="48.71098" lon="7.26685">
        <ele>445.9</ele>
        <time>2011-05-29T14:18:31Z</time>
      </trkpt>
      <trkpt lat="48.7111" lon="7.26727">
        <ele>446.9</ele>
        <time>2011-05-29T14:18:38Z</time>
      </trkpt>
      <trkpt lat="48.71122" lon="7.26764">
        <ele>447.6</ele>
        <time>2011-05-29T14:18:45Z</time>
      </trkpt>
      <trkpt lat="48.71138" lon="7.26798">
        <ele>448.5</ele>
        <time>2011-05-29T14:18:55Z</time>
      </trkpt>
      <trkpt lat="48.71153" lon="7.26832">
        <ele>449.9</ele>
        <time>2011-05-29T14:19:05Z</time>
      </trkpt>
      <trkpt lat="48.7117" lon="7.26866">
        <ele>450.9</ele>
        <time>2011-05-29T14:19:16Z</time>
      </trkpt>
      <trkpt lat="48.71185" lon="7.269">
        <ele>451.8</ele>
        <time>2011-05-29T14:19:25Z</time>
      </trkpt>
      <trkpt lat="48.71207" lon="7.26928">
        <ele>454.3</ele>
        <time>2011-05-29T14:19:35Z</time>
      </trkpt>
      <trkpt lat="48.71217" lon="7.26971">
        <ele>454.2</ele>
        <time>2011-05-29T14:19:45Z</time>
      </trkpt>
      <trkpt lat="48.71235" lon="7.27004">
        <ele>456.1</ele>
        <time>2011-05-29T14:19:54Z</time>
      </trkpt>
      <trkpt lat="48.71259" lon="7.2703">
        <ele>457.6</ele>
        <time>2011-05-29T14:20:02Z</time>
      </trkpt>
      <trkpt lat="48.71277" lon="7.27067">
        <ele>456.8</ele>
        <time>2011-05-29T14:20:10Z</time>
      </trkpt>
      <trkpt lat="48.71297" lon="7.27102">
        <ele>457.4</ele>
        <time>2011-05-29T14:20:17Z</time>
      </trkpt>
      <trkpt lat="48.71319" lon="7.27129">
        <ele>459.1</ele>
        <time>2011-05-29T14:20:24Z</time>
      </trkpt>
      <trkpt lat="48.71341" lon="7.2715">
        <ele>460.8</ele>
        <time>2011-05-29T14:20:34Z</time>
      </trkpt>
      <trkpt lat="48.71363" lon="7.27177">
        <ele>462.1</ele>
        <time>2011-05-29T14:20:45Z</time>
      </trkpt>
      <trkpt lat="48.71379" lon="7.27214">
        <ele>464.2</ele>
        <time>2011-05-29T14:20:55Z</time>
      </trkpt>
      <trkpt lat="48.71401" lon="7.27246">
        <ele>466.7</ele>
        <time>2011-05-29T14:21:05Z</time>
      </trkpt>
      <trkpt lat="48.71426" lon="7.27268">
        <ele>468.2</ele>
        <time>2011-05-29T14:21:12Z</time>
      </trkpt>
      <trkpt lat="48.71451" lon="7.27288">
        <ele>468.6</ele>
        <time>2011-05-29T14:21:18Z</time>
      </trkpt>
      <trkpt lat="48.71479" lon="7.2731">
        <ele>469.3</ele>
        <time>2011-05-29T14:21:24Z</time>
      </trkpt>
      <trkpt lat="48.71503" lon="7.27336">
        <ele>469.7</ele>
        <time>2011-05-29T14:21:29Z</time>
      </trkpt>
      <trkpt lat="48.71521" lon="7.27365">
        <ele>468.3</ele>
        <time>2011-05-29T14:21:33Z</time>
      </trkpt>
      <trkpt lat="48.7154" lon="7.27397">
        <ele>467.6</ele>
        <time>2011-05-29T14:21:37Z</time>
      </trkpt>
      <trkpt lat="48.71561" lon="7.27436">
        <ele>466.2</ele>
        <time>2011-05-29T14:21:42Z</time>
      </trkpt>
      <trkpt lat="48.71586" lon="7.27464">
        <ele>462.8</ele>
        <time>2011-05-29T14:21:46Z</time>
      </trkpt>
      <trkpt lat="48.71613" lon="7.27485">
        <ele>458.5</ele>
        <time>2011-05-29T14:21:50Z</time>
      </trkpt>
      <trkpt lat="48.71639" lon="7.27498">
        <ele>455</ele>
        <time>2011-05-29T14:21:56Z</time>
      </trkpt>
      <trkpt lat="48.71661" lon="7.27523">
        <ele>452</ele>
        <time>2011-05-29T14:22:03Z</time>
      </trkpt>
      <trkpt lat="48.7169" lon="7.27537">
        <ele>451</ele>
        <time>2011-05-29T14:22:11Z</time>
      </trkpt>
      <trkpt lat="48.71714" lon="7.27562">
        <ele>450.4</ele>
        <time>2011-05-29T14:22:16Z</time>
      </trkpt>
      <trkpt lat="48.7174" lon="7.27589">
        <ele>449.8</ele>
        <time>2011-05-29T14:22:21Z</time>
      </trkpt>
      <trkpt lat="48.71766" lon="7.27612">
        <ele>449.5</ele>
        <time>2011-05-29T14:22:26Z</time>
      </trkpt>
      <trkpt lat="48.7179" lon="7.27639">
        <ele>449.1</ele>
        <time>2011-05-29T14:22:31Z</time>
      </trkpt>
      <trkpt lat="48.71812" lon="7.27669">
        <ele>448.3</ele>
        <time>2011-05-29T14:22:35Z</time>
      </trkpt>
      <trkpt lat="48.71836" lon="7.27691">
        <ele>447.8</ele>
        <time>2011-05-29T14:22:40Z</time>
      </trkpt>
      <trkpt lat="48.71861" lon="7.27718">
        <ele>448</ele>
        <time>2011-05-29T14:22:46Z</time>
      </trkpt>
      <trkpt lat="48.71883" lon="7.27752">
        <ele>447.9</ele>
        <time>2011-05-29T14:22:51Z</time>
      </trkpt>
      <trkpt lat="48.71906" lon="7.27773">
        <ele>447.4</ele>
        <time>2011-05-29T14:22:57Z</time>
      </trkpt>
      <trkpt lat="48.71932" lon="7.27791">
        <ele>447.2</ele>
        <time>2011-05-29T14:23:03Z</time>
      </trkpt>
      <trkpt lat="48.71956" lon="7.27815">
        <ele>445.8</ele>
        <time>2011-05-29T14:23:09Z</time>
      </trkpt>
      <trkpt lat="48.71981" lon="7.2783">
        <ele>445.4</ele>
        <time>2011-05-29T14:23:14Z</time>
      </trkpt>
      <trkpt lat="48.72007" lon="7.27852">
        <ele>444</ele>
        <time>2011-05-29T14:23:19Z</time>
      </trkpt>
      <trkpt lat="48.72028" lon="7.27879">
        <ele>442.4</ele>
        <time>2011-05-29T14:23:24Z</time>
      </trkpt>
      <trkpt lat="48.72048" lon="7.27909">
        <ele>441.8</ele>
        <time>2011-05-29T14:23:29Z</time>
      </trkpt>
      <trkpt lat="48.72066" lon="7.2794">
        <ele>442.1</ele>
        <time>2011-05-29T14:23:33Z</time>
      </trkpt>
      <trkpt lat="48.72071" lon="7.27983">
        <ele>441</ele>
        <time>2011-05-29T14:23:38Z</time>
      </trkpt>
      <trkpt lat="48.72082" lon="7.28023">
        <ele>440.1</ele>
        <time>2011-05-29T14:23:43Z</time>
      </trkpt>
      <trkpt lat="48.72099" lon="7.28057">
        <ele>438.5</ele>
        <time>2011-05-29T14:23:48Z</time>
      </trkpt>
      <trkpt lat="48.72115" lon="7.2809">
        <ele>437.7</ele>
        <time>2011-05-29T14:23:53Z</time>
      </trkpt>
      <trkpt lat="48.72136" lon="7.28125">
        <ele>437.5</ele>
        <time>2011-05-29T14:23:58Z</time>
      </trkpt>
      <trkpt lat="48.72152" lon="7.28165">
        <ele>437.7</ele>
        <time>2011-05-29T14:24:04Z</time>
      </trkpt>
      <trkpt lat="48.72178" lon="7.28198">
        <ele>439</ele>
        <time>2011-05-29T14:24:10Z</time>
      </trkpt>
      <trkpt lat="48.72198" lon="7.28231">
        <ele>438.8</ele>
        <time>2011-05-29T14:24:16Z</time>
      </trkpt>
      <trkpt lat="48.72217" lon="7.28267">
        <ele>438.6</ele>
        <time>2011-05-29T14:24:22Z</time>
      </trkpt>
      <trkpt lat="48.72235" lon="7.28306">
        <ele>438.2</ele>
        <time>2011-05-29T14:24:28Z</time>
      </trkpt>
      <trkpt lat="48.72251" lon="7.28339">
        <ele>438.4</ele>
        <time>2011-05-29T14:24:33Z</time>
      </trkpt>
      <trkpt lat="48.72262" lon="7.28384">
        <ele>434.4</ele>
        <time>2011-05-29T14:24:39Z</time>
      </trkpt>
      <trkpt lat="48.72277" lon="7.28419">
        <ele>432.8</ele>
        <time>2011-05-29T14:24:44Z</time>
      </trkpt>
      <trkpt lat="48.72296" lon="7.28457">
        <ele>433</ele>
        <time>2011-05-29T14:24:49Z</time>
      </trkpt>
      <trkpt lat="48.72313" lon="7.28491">
        <ele>433.2</ele>
        <time>2011-05-29T14:24:53Z</time>
      </trkpt>
      <trkpt lat="48.72335" lon="7.28518">
        <ele>434.2</ele>
        <time>2011-05-29T14:24:57Z</time>
      </trkpt>
      <trkpt lat="48.72352" lon="7.28559">
        <ele>430.7</ele>
        <time>2011-05-29T14:25:03Z</time>
      </trkpt>
      <trkpt lat="48.72352" lon="7.28607">
        <ele>428.7</ele>
        <time>2011-05-29T14:25:08Z</time>
      </trkpt>
      <trkpt lat="48.72353" lon="7.28654">
        <ele>426.3</ele>
        <time>2011-05-29T14:25:12Z</time>
      </trkpt>
      <trkpt lat="48.7235" lon="7.28704">
        <ele>423.7</ele>
        <time>2011-05-29T14:25:16Z</time>
      </trkpt>
      <trkpt lat="48.7235" lon="7.2875">
        <ele>420.9</ele>
        <time>2011-05-29T14:25:20Z</time>
      </trkpt>
      <trkpt lat="48.72354" lon="7.28797">
        <ele>416.9</ele>
        <time>2011-05-29T14:25:24Z</time>
      </trkpt>
      <trkpt lat="48.72369" lon="7.28836">
        <ele>413.9</ele>
        <time>2011-05-29T14:25:28Z</time>
      </trkpt>
      <trkpt lat="48.7238" lon="7.28877">
        <ele>412.6</ele>
        <time>2011-05-29T14:25:32Z</time>
      </trkpt>
      <trkpt lat="48.72391" lon="7.28924">
        <ele>411.7</ele>
        <time>2011-05-29T14:25:36Z</time>
      </trkpt>
      <trkpt lat="48.72402" lon="7.2897">
        <ele>412.1</ele>
        <time>2011-05-29T14:25:40Z</time>
      </trkpt>
      <trkpt lat="48.72413" lon="7.29021">
        <ele>412.6</ele>
        <time>2011-05-29T14:25:44Z</time>
      </trkpt>
      <trkpt lat="48.72426" lon="7.29064">
        <ele>411.5</ele>
        <time>2011-05-29T14:25:48Z</time>
      </trkpt>
      <trkpt lat="48.72437" lon="7.29115">
        <ele>409.5</ele>
        <time>2011-05-29T14:25:52Z</time>
      </trkpt>
      <trkpt lat="48.7245" lon="7.29159">
        <ele>407.5</ele>
        <time>2011-05-29T14:25:56Z</time>
      </trkpt>
      <trkpt lat="48.72462" lon="7.29196">
        <ele>406</ele>
        <time>2011-05-29T14:25:59Z</time>
      </trkpt>
      <trkpt lat="48.72469" lon="7.29238">
        <ele>405.2</ele>
        <time>2011-05-29T14:26:02Z</time>
      </trkpt>
      <trkpt lat="48.72481" lon="7.29275">
        <ele>402.8</ele>
        <time>2011-05-29T14:26:07Z</time>
      </trkpt>
      <trkpt lat="48.72506" lon="7.29253">
        <ele>401.5</ele>
        <time>2011-05-29T14:26:15Z</time>
      </trkpt>
      <trkpt lat="48.72509" lon="7.2921">
        <ele>400.1</ele>
        <time>2011-05-29T14:26:22Z</time>
      </trkpt>
      <trkpt lat="48.72508" lon="7.29169">
        <ele>399.9</ele>
        <time>2011-05-29T14:26:27Z</time>
      </trkpt>
      <trkpt lat="48.72509" lon="7.29127">
        <ele>398.4</ele>
        <time>2011-05-29T14:26:32Z</time>
      </trkpt>
      <trkpt lat="48.72514" lon="7.29082">
        <ele>396</ele>
        <time>2011-05-29T14:26:37Z</time>
      </trkpt>
      <trkpt lat="48.72522" lon="7.29043">
        <ele>392.2</ele>
        <time>2011-05-29T14:26:41Z</time>
      </trkpt>
      <trkpt lat="48.72524" lon="7.28994">
        <ele>390</ele>
        <time>2011-05-29T14:26:45Z</time>
      </trkpt>
      <trkpt lat="48.72518" lon="7.28949">
        <ele>390.3</ele>
        <time>2011-05-29T14:26:50Z</time>
      </trkpt>
      <trkpt lat="48.72512" lon="7.28908">
        <ele>390.7</ele>
        <time>2011-05-29T14:26:54Z</time>
      </trkpt>
      <trkpt lat="48.72514" lon="7.28866">
        <ele>388.2</ele>
        <time>2011-05-29T14:27:00Z</time>
      </trkpt>
      <trkpt lat="48.72517" lon="7.28915">
        <ele>389.3</ele>
        <time>2011-05-29T14:27:09Z</time>
      </trkpt>
      <trkpt lat="48.72526" lon="7.28961">
        <ele>388.1</ele>
        <time>2011-05-29T14:27:14Z</time>
      </trkpt>
      <trkpt lat="48.7253" lon="7.29005">
        <ele>388.6</ele>
        <time>2011-05-29T14:27:18Z</time>
      </trkpt>
      <trkpt lat="48.72535" lon="7.29053">
        <ele>388.8</ele>
        <time>2011-05-29T14:27:22Z</time>
      </trkpt>
      <trkpt lat="48.72546" lon="7.29103">
        <ele>387.2</ele>
        <time>2011-05-29T14:27:26Z</time>
      </trkpt>
      <trkpt lat="48.72557" lon="7.29155">
        <ele>385.4</ele>
        <time>2011-05-29T14:27:30Z</time>
      </trkpt>
      <trkpt lat="48.72568" lon="7.29196">
        <ele>384.2</ele>
        <time>2011-05-29T14:27:33Z</time>
      </trkpt>
      <trkpt lat="48.72581" lon="7.29247">
        <ele>384.3</ele>
        <time>2011-05-29T14:27:37Z</time>
      </trkpt>
      <trkpt lat="48.72595" lon="7.29286">
        <ele>376.1</ele>
        <time>2011-05-29T14:27:40Z</time>
      </trkpt>
      <trkpt lat="48.72608" lon="7.29329">
        <ele>367.7</ele>
        <time>2011-05-29T14:27:43Z</time>
      </trkpt>
      <trkpt lat="48.72622" lon="7.29375">
        <ele>355.1</ele>
        <time>2011-05-29T14:27:47Z</time>
      </trkpt>
      <trkpt lat="48.7261" lon="7.29412">
        <ele>351.5</ele>
        <time>2011-05-29T14:27:52Z</time>
      </trkpt>
      <trkpt lat="48.72584" lon="7.2943">
        <ele>350.9</ele>
        <time>2011-05-29T14:27:56Z</time>
      </trkpt>
      <trkpt lat="48.72554" lon="7.2944">
        <ele>355.2</ele>
        <time>2011-05-29T14:28:00Z</time>
      </trkpt>
      <trkpt lat="48.72524" lon="7.29464">
        <ele>355.9</ele>
        <time>2011-05-29T14:28:04Z</time>
      </trkpt>
      <trkpt lat="48.725" lon="7.295">
        <ele>352</ele>
        <time>2011-05-29T14:28:08Z</time>
      </trkpt>
      <trkpt lat="48.72482" lon="7.29531">
        <ele>345.9</ele>
        <time>2011-05-29T14:28:11Z</time>
      </trkpt>
      <trkpt lat="48.72455" lon="7.29575">
        <ele>340</ele>
        <time>2011-05-29T14:28:15Z</time>
      </trkpt>
      <trkpt lat="48.72436" lon="7.2961">
        <ele>337.2</ele>
        <time>2011-05-29T14:28:18Z</time>
      </trkpt>
      <trkpt lat="48.7242" lon="7.29653">
        <ele>332.9</ele>
        <time>2011-05-29T14:28:21Z</time>
      </trkpt>
      <trkpt lat="48.72404" lon="7.29693">
        <ele>323.6</ele>
        <time>2011-05-29T14:28:25Z</time>
      </trkpt>
      <trkpt lat="48.72377" lon="7.29686">
        <ele>320.1</ele>
        <time>2011-05-29T14:28:31Z</time>
      </trkpt>
      <trkpt lat="48.72358" lon="7.2965">
        <ele>322.9</ele>
        <time>2011-05-29T14:28:36Z</time>
      </trkpt>
      <trkpt lat="48.72335" lon="7.29615">
        <ele>324.7</ele>
        <time>2011-05-29T14:28:41Z</time>
      </trkpt>
      <trkpt lat="48.72317" lon="7.29582">
        <ele>324.1</ele>
        <time>2011-05-29T14:28:45Z</time>
      </trkpt>
      <trkpt lat="48.72298" lon="7.29541">
        <ele>325</ele>
        <time>2011-05-29T14:28:49Z</time>
      </trkpt>
      <trkpt lat="48.72279" lon="7.29495">
        <ele>326.2</ele>
        <time>2011-05-29T14:28:53Z</time>
      </trkpt>
      <trkpt lat="48.72266" lon="7.29458">
        <ele>327.8</ele>
        <time>2011-05-29T14:28:56Z</time>
      </trkpt>
      <trkpt lat="48.72245" lon="7.29415">
        <ele>326.9</ele>
        <time>2011-05-29T14:29:00Z</time>
      </trkpt>
      <trkpt lat="48.72226" lon="7.29382">
        <ele>320.7</ele>
        <time>2011-05-29T14:29:03Z</time>
      </trkpt>
      <trkpt lat="48.72211" lon="7.29344">
        <ele>316.6</ele>
        <time>2011-05-29T14:29:06Z</time>
      </trkpt>
      <trkpt lat="48.72195" lon="7.29308">
        <ele>310.6</ele>
        <time>2011-05-29T14:29:09Z</time>
      </trkpt>
      <trkpt lat="48.72183" lon="7.29271">
        <ele>306.2</ele>
        <time>2011-05-29T14:29:12Z</time>
      </trkpt>
      <trkpt lat="48.72168" lon="7.29225">
        <ele>298.7</ele>
        <time>2011-05-29T14:29:15Z</time>
      </trkpt>
      <trkpt lat="48.72161" lon="7.29185">
        <ele>297.4</ele>
        <time>2011-05-29T14:29:18Z</time>
      </trkpt>
      <trkpt lat="48.72149" lon="7.29138">
        <ele>296.7</ele>
        <time>2011-05-29T14:29:21Z</time>
      </trkpt>
      <trkpt lat="48.72139" lon="7.29093">
        <ele>297.7</ele>
        <time>2011-05-29T14:29:24Z</time>
      </trkpt>
      <trkpt lat="48.72126" lon="7.2904">
        <ele>296.8</ele>
        <time>2011-05-29T14:29:27Z</time>
      </trkpt>
      <trkpt lat="48.72114" lon="7.28996">
        <ele>295.7</ele>
        <time>2011-05-29T14:29:30Z</time>
      </trkpt>
      <trkpt lat="48.72103" lon="7.28955">
        <ele>296.8</ele>
        <time>2011-05-29T14:29:33Z</time>
      </trkpt>
      <trkpt lat="48.72085" lon="7.28912">
        <ele>295.3</ele>
        <time>2011-05-29T14:29:36Z</time>
      </trkpt>
      <trkpt lat="48.72069" lon="7.28874">
        <ele>296.5</ele>
        <time>2011-05-29T14:29:39Z</time>
      </trkpt>
      <trkpt lat="48.7205" lon="7.28827">
        <ele>297</ele>
        <time>2011-05-29T14:29:42Z</time>
      </trkpt>
      <trkpt lat="48.72023" lon="7.2879">
        <ele>294.9</ele>
        <time>2011-05-29T14:29:45Z</time>
      </trkpt>
      <trkpt lat="48.72002" lon="7.28747">
        <ele>291.7</ele>
        <time>2011-05-29T14:29:48Z</time>
      </trkpt>
      <trkpt lat="48.71982" lon="7.28704">
        <ele>294.2</ele>
        <time>2011-05-29T14:29:51Z</time>
      </trkpt>
      <trkpt lat="48.71967" lon="7.28669">
        <ele>295.2</ele>
        <time>2011-05-29T14:29:54Z</time>
      </trkpt>
      <trkpt lat="48.71949" lon="7.28697">
        <ele>293.1</ele>
        <time>2011-05-29T14:30:04Z</time>
      </trkpt>
      <trkpt lat="48.71956" lon="7.2874">
        <ele>292.3</ele>
        <time>2011-05-29T14:30:09Z</time>
      </trkpt>
      <trkpt lat="48.71965" lon="7.28779">
        <ele>293.3</ele>
        <time>2011-05-29T14:30:13Z</time>
      </trkpt>
      <trkpt lat="48.71977" lon="7.28826">
        <ele>293.1</ele>
        <time>2011-05-29T14:30:17Z</time>
      </trkpt>
      <trkpt lat="48.71987" lon="7.28868">
        <ele>292.1</ele>
        <time>2011-05-29T14:30:21Z</time>
      </trkpt>
      <trkpt lat="48.72001" lon="7.28915">
        <ele>290</ele>
        <time>2011-05-29T14:30:25Z</time>
      </trkpt>
      <trkpt lat="48.72014" lon="7.28953">
        <ele>288</ele>
        <time>2011-05-29T14:30:28Z</time>
      </trkpt>
      <trkpt lat="48.72023" lon="7.28994">
        <ele>284.7</ele>
        <time>2011-05-29T14:30:31Z</time>
      </trkpt>
      <trkpt lat="48.72032" lon="7.29036">
        <ele>283.2</ele>
        <time>2011-05-29T14:30:34Z</time>
      </trkpt>
      <trkpt lat="48.72038" lon="7.29088">
        <ele>281.4</ele>
        <time>2011-05-29T14:30:38Z</time>
      </trkpt>
      <trkpt lat="48.72047" lon="7.29137">
        <ele>278.2</ele>
        <time>2011-05-29T14:30:42Z</time>
      </trkpt>
      <trkpt lat="48.72057" lon="7.29188">
        <ele>274.4</ele>
        <time>2011-05-29T14:30:46Z</time>
      </trkpt>
      <trkpt lat="48.7206" lon="7.29239">
        <ele>271.4</ele>
        <time>2011-05-29T14:30:50Z</time>
      </trkpt>
      <trkpt lat="48.72067" lon="7.29287">
        <ele>268.2</ele>
        <time>2011-05-29T14:30:54Z</time>
      </trkpt>
      <trkpt lat="48.72072" lon="7.29333">
        <ele>265</ele>
        <time>2011-05-29T14:30:58Z</time>
      </trkpt>
      <trkpt lat="48.7208" lon="7.29375">
        <ele>262.6</ele>
        <time>2011-05-29T14:31:02Z</time>
      </trkpt>
      <trkpt lat="48.72089" lon="7.29413">
        <ele>263.1</ele>
        <time>2011-05-29T14:31:06Z</time>
      </trkpt>
      <trkpt lat="48.72091" lon="7.29455">
        <ele>262.6</ele>
        <time>2011-05-29T14:31:14Z</time>
      </trkpt>
      <trkpt lat="48.72066" lon="7.29474">
        <ele>263.9</ele>
        <time>2011-05-29T14:31:31Z</time>
      </trkpt>
      <trkpt lat="48.72043" lon="7.29497">
        <ele>268.7</ele>
        <time>2011-05-29T14:31:53Z</time>
      </trkpt>
      <trkpt lat="48.72043" lon="7.2954">
        <ele>271.3</ele>
        <time>2011-05-29T14:32:11Z</time>
      </trkpt>
      <trkpt lat="48.72041" lon="7.29581">
        <ele>274.5</ele>
        <time>2011-05-29T14:32:28Z</time>
      </trkpt>
      <trkpt lat="48.72042" lon="7.29624">
        <ele>274.2</ele>
        <time>2011-05-29T14:32:47Z</time>
      </trkpt>
      <trkpt lat="48.72045" lon="7.29665">
        <ele>272.9</ele>
        <time>2011-05-29T14:33:03Z</time>
      </trkpt>
      <trkpt lat="48.72051" lon="7.29709">
        <ele>271.1</ele>
        <time>2011-05-29T14:33:17Z</time>
      </trkpt>
      <trkpt lat="48.72059" lon="7.29749">
        <ele>268.3</ele>
        <time>2011-05-29T14:33:30Z</time>
      </trkpt>
      <trkpt lat="48.72064" lon="7.29791">
        <ele>266.2</ele>
        <time>2011-05-29T14:33:44Z</time>
      </trkpt>
      <trkpt lat="48.72068" lon="7.29832">
        <ele>264.3</ele>
        <time>2011-05-29T14:33:58Z</time>
      </trkpt>
      <trkpt lat="48.72076" lon="7.29873">
        <ele>265</ele>
        <time>2011-05-29T14:34:14Z</time>
      </trkpt>
      <trkpt lat="48.72081" lon="7.29913">
        <ele>267.5</ele>
        <time>2011-05-29T14:34:29Z</time>
      </trkpt>
      <trkpt lat="48.72087" lon="7.29954">
        <ele>269.5</ele>
        <time>2011-05-29T14:34:46Z</time>
      </trkpt>
      <trkpt lat="48.72092" lon="7.29996">
        <ele>272</ele>
        <time>2011-05-29T14:35:07Z</time>
      </trkpt>
      <trkpt lat="48.72096" lon="7.30037">
        <ele>276</ele>
        <time>2011-05-29T14:35:24Z</time>
      </trkpt>
      <trkpt lat="48.72099" lon="7.3008">
        <ele>280.7</ele>
        <time>2011-05-29T14:35:44Z</time>
      </trkpt>
      <trkpt lat="48.72098" lon="7.3012">
        <ele>284.1</ele>
        <time>2011-05-29T14:36:00Z</time>
      </trkpt>
      <trkpt lat="48.72094" lon="7.30163">
        <ele>288.2</ele>
        <time>2011-05-29T14:36:17Z</time>
      </trkpt>
      <trkpt lat="48.72089" lon="7.30203">
        <ele>290.1</ele>
        <time>2011-05-29T14:36:33Z</time>
      </trkpt>
      <trkpt lat="48.72087" lon="7.30244">
        <ele>291</ele>
        <time>2011-05-29T14:36:51Z</time>
      </trkpt>
      <trkpt lat="48.7207" lon="7.30277">
        <ele>291.6</ele>
        <time>2011-05-29T14:37:03Z</time>
      </trkpt>
      <trkpt lat="48.7205" lon="7.30305">
        <ele>290.7</ele>
        <time>2011-05-29T14:37:07Z</time>
      </trkpt>
      <trkpt lat="48.72022" lon="7.30329">
        <ele>290.5</ele>
        <time>2011-05-29T14:37:11Z</time>
      </trkpt>
      <trkpt lat="48.71988" lon="7.30351">
        <ele>286.8</ele>
        <time>2011-05-29T14:37:15Z</time>
      </trkpt>
      <trkpt lat="48.71956" lon="7.30362">
        <ele>284</ele>
        <time>2011-05-29T14:37:18Z</time>
      </trkpt>
      <trkpt lat="48.7192" lon="7.30369">
        <ele>283.8</ele>
        <time>2011-05-29T14:37:21Z</time>
      </trkpt>
      <trkpt lat="48.71888" lon="7.30379">
        <ele>287.1</ele>
        <time>2011-05-29T14:37:24Z</time>
      </trkpt>
      <trkpt lat="48.71861" lon="7.30396">
        <ele>289.7</ele>
        <time>2011-05-29T14:37:28Z</time>
      </trkpt>
      <trkpt lat="48.71843" lon="7.30428">
        <ele>291.6</ele>
        <time>2011-05-29T14:37:32Z</time>
      </trkpt>
      <trkpt lat="48.71841" lon="7.30474">
        <ele>294.3</ele>
        <time>2011-05-29T14:37:37Z</time>
      </trkpt>
      <trkpt lat="48.7185" lon="7.30515">
        <ele>292.8</ele>
        <time>2011-05-29T14:37:42Z</time>
      </trkpt>
      <trkpt lat="48.71861" lon="7.30558">
        <ele>290.5</ele>
        <time>2011-05-29T14:37:47Z</time>
      </trkpt>
      <trkpt lat="48.7187" lon="7.30597">
        <ele>288.1</ele>
        <time>2011-05-29T14:37:52Z</time>
      </trkpt>
      <trkpt lat="48.71883" lon="7.30635">
        <ele>282.6</ele>
        <time>2011-05-29T14:37:59Z</time>
      </trkpt>
      <trkpt lat="48.71887" lon="7.30646">
        <ele>280.7</ele>
        <time>2011-05-29T14:43:55Z</time>
      </trkpt>
      <trkpt lat="48.71893" lon="7.30691">
        <ele>276.8</ele>
        <time>2011-05-29T14:44:00Z</time>
      </trkpt>
      <trkpt lat="48.71898" lon="7.30732">
        <ele>272.8</ele>
        <time>2011-05-29T14:44:04Z</time>
      </trkpt>
      <trkpt lat="48.71901" lon="7.30777">
        <ele>268.7</ele>
        <time>2011-05-29T14:44:08Z</time>
      </trkpt>
      <trkpt lat="48.71905" lon="7.30828">
        <ele>264.2</ele>
        <time>2011-05-29T14:44:12Z</time>
      </trkpt>
      <trkpt lat="48.7191" lon="7.30869">
        <ele>260.3</ele>
        <time>2011-05-29T14:44:15Z</time>
      </trkpt>
      <trkpt lat="48.71916" lon="7.30909">
        <ele>256.6</ele>
        <time>2011-05-29T14:44:18Z</time>
      </trkpt>
      <trkpt lat="48.71921" lon="7.30952">
        <ele>252.2</ele>
        <time>2011-05-29T14:44:21Z</time>
      </trkpt>
      <trkpt lat="48.71923" lon="7.30998">
        <ele>249.2</ele>
        <time>2011-05-29T14:44:24Z</time>
      </trkpt>
      <trkpt lat="48.71929" lon="7.31046">
        <ele>242.7</ele>
        <time>2011-05-29T14:44:27Z</time>
      </trkpt>
      <trkpt lat="48.71936" lon="7.31099">
        <ele>235.2</ele>
        <time>2011-05-29T14:44:30Z</time>
      </trkpt>
      <trkpt lat="48.7194" lon="7.31155">
        <ele>227.5</ele>
        <time>2011-05-29T14:44:33Z</time>
      </trkpt>
      <trkpt lat="48.71943" lon="7.31204">
        <ele>221.3</ele>
        <time>2011-05-29T14:44:36Z</time>
      </trkpt>
      <trkpt lat="48.71936" lon="7.31247">
        <ele>218.5</ele>
        <time>2011-05-29T14:44:40Z</time>
      </trkpt>
      <trkpt lat="48.7191" lon="7.3128">
        <ele>221.7</ele>
        <time>2011-05-29T14:44:44Z</time>
      </trkpt>
      <trkpt lat="48.71891" lon="7.31311">
        <ele>223.2</ele>
        <time>2011-05-29T14:44:47Z</time>
      </trkpt>
      <trkpt lat="48.71878" lon="7.31351">
        <ele>222.6</ele>
        <time>2011-05-29T14:44:50Z</time>
      </trkpt>
      <trkpt lat="48.71869" lon="7.31396">
        <ele>221.4</ele>
        <time>2011-05-29T14:44:53Z</time>
      </trkpt>
      <trkpt lat="48.7186" lon="7.31435">
        <ele>221.9</ele>
        <time>2011-05-29T14:44:56Z</time>
      </trkpt>
      <trkpt lat="48.71863" lon="7.31476">
        <ele>223.8</ele>
        <time>2011-05-29T14:45:12Z</time>
      </trkpt>
      <trkpt lat="48.71889" lon="7.31486">
        <ele>222.5</ele>
        <time>2011-05-29T14:45:32Z</time>
      </trkpt>
      <trkpt lat="48.71906" lon="7.31453">
        <ele>218.5</ele>
        <time>2011-05-29T14:45:46Z</time>
      </trkpt>
      <trkpt lat="48.71922" lon="7.3142">
        <ele>213.8</ele>
        <time>2011-05-29T14:46:03Z</time>
      </trkpt>
      <trkpt lat="48.71948" lon="7.3141">
        <ele>210.5</ele>
        <time>2011-05-29T14:46:17Z</time>
      </trkpt>
      <trkpt lat="48.71967" lon="7.31438">
        <ele>210.4</ele>
        <time>2011-05-29T14:46:26Z</time>
      </trkpt>
      <trkpt lat="48.71972" lon="7.31481">
        <ele>213.2</ele>
        <time>2011-05-29T14:46:35Z</time>
      </trkpt>
      <trkpt lat="48.71974" lon="7.31522">
        <ele>218.3</ele>
        <time>2011-05-29T14:46:43Z</time>
      </trkpt>
      <trkpt lat="48.71985" lon="7.31566">
        <ele>224</ele>
        <time>2011-05-29T14:46:52Z</time>
      </trkpt>
      <trkpt lat="48.71999" lon="7.316">
        <ele>225.6</ele>
        <time>2011-05-29T14:46:59Z</time>
      </trkpt>
      <trkpt lat="48.72012" lon="7.31641">
        <ele>224.7</ele>
        <time>2011-05-29T14:47:07Z</time>
      </trkpt>
      <trkpt lat="48.72024" lon="7.31679">
        <ele>223.7</ele>
        <time>2011-05-29T14:47:15Z</time>
      </trkpt>
      <trkpt lat="48.72023" lon="7.31721">
        <ele>229.3</ele>
        <time>2011-05-29T14:47:24Z</time>
      </trkpt>
      <trkpt lat="48.7203" lon="7.31764">
        <ele>230.7</ele>
        <time>2011-05-29T14:47:32Z</time>
      </trkpt>
      <trkpt lat="48.7204" lon="7.31804">
        <ele>228.6</ele>
        <time>2011-05-29T14:47:38Z</time>
      </trkpt>
      <trkpt lat="48.72057" lon="7.31846">
        <ele>223.5</ele>
        <time>2011-05-29T14:47:44Z</time>
      </trkpt>
      <trkpt lat="48.72068" lon="7.31884">
        <ele>222.1</ele>
        <time>2011-05-29T14:47:49Z</time>
      </trkpt>
      <trkpt lat="48.72081" lon="7.31925">
        <ele>220.4</ele>
        <time>2011-05-29T14:47:55Z</time>
      </trkpt>
      <trkpt lat="48.72089" lon="7.31964">
        <ele>218.7</ele>
        <time>2011-05-29T14:48:01Z</time>
      </trkpt>
      <trkpt lat="48.7208" lon="7.32005">
        <ele>222.6</ele>
        <time>2011-05-29T14:48:07Z</time>
      </trkpt>
      <trkpt lat="48.72073" lon="7.32051">
        <ele>227.3</ele>
        <time>2011-05-29T14:48:16Z</time>
      </trkpt>
      <trkpt lat="48.72096" lon="7.32068">
        <ele>223.8</ele>
        <time>2011-05-29T14:48:29Z</time>
      </trkpt>
      <trkpt lat="48.72114" lon="7.32049">
        <ele>218.8</ele>
        <time>2011-05-29T14:48:44Z</time>
      </trkpt>
      <trkpt lat="48.72141" lon="7.32067">
        <ele>216.3</ele>
        <time>2011-05-29T14:48:57Z</time>
      </trkpt>
      <trkpt lat="48.72155" lon="7.32104">
        <ele>222.3</ele>
        <time>2011-05-29T14:49:08Z</time>
      </trkpt>
      <trkpt lat="48.72166" lon="7.32146">
        <ele>232.3</ele>
        <time>2011-05-29T14:49:17Z</time>
      </trkpt>
      <trkpt lat="48.72177" lon="7.32183">
        <ele>237.6</ele>
        <time>2011-05-29T14:49:25Z</time>
      </trkpt>
      <trkpt lat="48.7219" lon="7.32222">
        <ele>240.8</ele>
        <time>2011-05-29T14:49:33Z</time>
      </trkpt>
      <trkpt lat="48.72204" lon="7.3226">
        <ele>242</ele>
        <time>2011-05-29T14:49:40Z</time>
      </trkpt>
      <trkpt lat="48.72222" lon="7.3229">
        <ele>239.9</ele>
        <time>2011-05-29T14:49:45Z</time>
      </trkpt>
      <trkpt lat="48.72239" lon="7.3233">
        <ele>241.9</ele>
        <time>2011-05-29T14:49:52Z</time>
      </trkpt>
      <trkpt lat="48.72258" lon="7.32368">
        <ele>240.8</ele>
        <time>2011-05-29T14:49:58Z</time>
      </trkpt>
      <trkpt lat="48.72277" lon="7.32401">
        <ele>237.9</ele>
        <time>2011-05-29T14:50:03Z</time>
      </trkpt>
      <trkpt lat="48.72297" lon="7.32435">
        <ele>235</ele>
        <time>2011-05-29T14:50:09Z</time>
      </trkpt>
      <trkpt lat="48.72315" lon="7.32468">
        <ele>234.5</ele>
        <time>2011-05-29T14:50:15Z</time>
      </trkpt>
      <trkpt lat="48.72335" lon="7.32504">
        <ele>234.2</ele>
        <time>2011-05-29T14:50:22Z</time>
      </trkpt>
      <trkpt lat="48.72355" lon="7.32536">
        <ele>231.3</ele>
        <time>2011-05-29T14:50:28Z</time>
      </trkpt>
      <trkpt lat="48.72374" lon="7.32566">
        <ele>227.9</ele>
        <time>2011-05-29T14:50:34Z</time>
      </trkpt>
      <trkpt lat="48.72394" lon="7.32601">
        <ele>223.7</ele>
        <time>2011-05-29T14:50:40Z</time>
      </trkpt>
      <trkpt lat="48.72416" lon="7.32637">
        <ele>220.5</ele>
        <time>2011-05-29T14:50:46Z</time>
      </trkpt>
      <trkpt lat="48.72436" lon="7.32671">
        <ele>220.9</ele>
        <time>2011-05-29T14:50:52Z</time>
      </trkpt>
      <trkpt lat="48.7245" lon="7.32712">
        <ele>220.4</ele>
        <time>2011-05-29T14:50:58Z</time>
      </trkpt>
      <trkpt lat="48.72466" lon="7.32749">
        <ele>219.3</ele>
        <time>2011-05-29T14:51:03Z</time>
      </trkpt>
      <trkpt lat="48.72479" lon="7.32785">
        <ele>218.4</ele>
        <time>2011-05-29T14:51:08Z</time>
      </trkpt>
      <trkpt lat="48.72498" lon="7.32815">
        <ele>216.6</ele>
        <time>2011-05-29T14:51:12Z</time>
      </trkpt>
      <trkpt lat="48.72519" lon="7.3284">
        <ele>214.8</ele>
        <time>2011-05-29T14:51:17Z</time>
      </trkpt>
      <trkpt lat="48.72539" lon="7.32873">
        <ele>212.9</ele>
        <time>2011-05-29T14:51:23Z</time>
      </trkpt>
      <trkpt lat="48.72553" lon="7.32917">
        <ele>212.7</ele>
        <time>2011-05-29T14:51:29Z</time>
      </trkpt>
      <trkpt lat="48.72558" lon="7.32957">
        <ele>214.3</ele>
        <time>2011-05-29T14:51:34Z</time>
      </trkpt>
      <trkpt lat="48.72564" lon="7.33">
        <ele>216</ele>
        <time>2011-05-29T14:51:40Z</time>
      </trkpt>
      <trkpt lat="48.7257" lon="7.33048">
        <ele>218.2</ele>
        <time>2011-05-29T14:51:47Z</time>
      </trkpt>
      <trkpt lat="48.72577" lon="7.3309">
        <ele>220.5</ele>
        <time>2011-05-29T14:51:54Z</time>
      </trkpt>
      <trkpt lat="48.72587" lon="7.33132">
        <ele>228</ele>
        <time>2011-05-29T14:52:02Z</time>
      </trkpt>
      <trkpt lat="48.72609" lon="7.33166">
        <ele>228.4</ele>
        <time>2011-05-29T14:52:08Z</time>
      </trkpt>
      <trkpt lat="48.72625" lon="7.332">
        <ele>234.4</ele>
        <time>2011-05-29T14:52:16Z</time>
      </trkpt>
      <trkpt lat="48.7264" lon="7.33237">
        <ele>241.7</ele>
        <time>2011-05-29T14:52:26Z</time>
      </trkpt>
      <trkpt lat="48.72663" lon="7.33263">
        <ele>242.2</ele>
        <time>2011-05-29T14:52:33Z</time>
      </trkpt>
      <trkpt lat="48.72687" lon="7.33288">
        <ele>242.9</ele>
        <time>2011-05-29T14:52:41Z</time>
      </trkpt>
      <trkpt lat="48.72712" lon="7.33306">
        <ele>240.3</ele>
        <time>2011-05-29T14:52:48Z</time>
      </trkpt>
      <trkpt lat="48.72735" lon="7.33329">
        <ele>239.4</ele>
        <time>2011-05-29T14:52:59Z</time>
      </trkpt>
      <trkpt lat="48.72759" lon="7.33347">
        <ele>238.1</ele>
        <time>2011-05-29T14:53:08Z</time>
      </trkpt>
      <trkpt lat="48.72783" lon="7.33369">
        <ele>240.3</ele>
        <time>2011-05-29T14:53:21Z</time>
      </trkpt>
      <trkpt lat="48.72805" lon="7.33396">
        <ele>245.1</ele>
        <time>2011-05-29T14:53:34Z</time>
      </trkpt>
      <trkpt lat="48.72829" lon="7.33419">
        <ele>247.4</ele>
        <time>2011-05-29T14:53:45Z</time>
      </trkpt>
      <trkpt lat="48.72852" lon="7.33444">
        <ele>247.9</ele>
        <time>2011-05-29T14:54:02Z</time>
      </trkpt>
      <trkpt lat="48.72878" lon="7.33463">
        <ele>246.2</ele>
        <time>2011-05-29T14:54:18Z</time>
      </trkpt>
      <trkpt lat="48.72903" lon="7.33483">
        <ele>245.2</ele>
        <time>2011-05-29T14:54:31Z</time>
      </trkpt>
      <trkpt lat="48.72958" lon="7.33556">
        <ele>245.2</ele>
        <time>2011-05-29T14:55:23Z</time>
      </trkpt>
      <trkpt lat="48.72979" lon="7.33619">
        <ele>247.5</ele>
        <time>2011-05-29T14:55:58Z</time>
      </trkpt>
      <trkpt lat="48.72973" lon="7.33769">
        <ele>254</ele>
        <time>2011-05-29T14:56:41Z</time>
      </trkpt>
      <trkpt lat="48.7295" lon="7.33892">
        <ele>269.5</ele>
        <time>2011-05-29T14:57:56Z</time>
      </trkpt>
      <trkpt lat="48.72967" lon="7.33983">
        <ele>274.1</ele>
        <time>2011-05-29T15:00:11Z</time>
      </trkpt>
      <trkpt lat="48.72982" lon="7.34058">
        <ele>282.6</ele>
        <time>2011-05-29T15:00:46Z</time>
      </trkpt>
      <trkpt lat="48.73016" lon="7.34136">
        <ele>285.4</ele>
        <time>2011-05-29T15:01:46Z</time>
      </trkpt>
      <trkpt lat="48.73128" lon="7.34285">
        <ele>286.1</ele>
        <time>2011-05-29T15:03:02Z</time>
      </trkpt>
      <trkpt lat="48.73149" lon="7.34317">
        <ele>289</ele>
        <time>2011-05-29T15:03:10Z</time>
      </trkpt>
      <trkpt lat="48.73209" lon="7.34488">
        <ele>292.3</ele>
        <time>2011-05-29T15:03:20Z</time>
      </trkpt>
      <trkpt lat="48.73252" lon="7.34615">
        <ele>290.8</ele>
        <time>2011-05-29T15:03:52Z</time>
      </trkpt>
      <trkpt lat="48.73315" lon="7.34716">
        <ele>281.2</ele>
        <time>2011-05-29T15:04:19Z</time>
      </trkpt>
      <trkpt lat="48.7335" lon="7.34776">
        <ele>277.2</ele>
        <time>2011-05-29T15:04:38Z</time>
      </trkpt>
      <trkpt lat="48.73359" lon="7.34809">
        <ele>276.9</ele>
        <time>2011-05-29T15:04:43Z</time>
      </trkpt>
      <trkpt lat="48.73347" lon="7.34835">
        <ele>279.1</ele>
        <time>2011-05-29T15:04:50Z</time>
      </trkpt>
      <trkpt lat="48.73313" lon="7.34887">
        <ele>275.8</ele>
        <time>2011-05-29T15:04:52Z</time>
      </trkpt>
      <trkpt lat="48.73283" lon="7.34934">
        <ele>269.6</ele>
        <time>2011-05-29T15:04:55Z</time>
      </trkpt>
      <trkpt lat="48.73267" lon="7.34984">
        <ele>263.2</ele>
        <time>2011-05-29T15:04:59Z</time>
      </trkpt>
      <trkpt lat="48.73235" lon="7.35064">
        <ele>255.2</ele>
        <time>2011-05-29T15:05:07Z</time>
      </trkpt>
      <trkpt lat="48.73217" lon="7.35105">
        <ele>251.5</ele>
        <time>2011-05-29T15:05:10Z</time>
      </trkpt>
    </trkseg>
  </trk>
</gpx>